SondeTracker

Meteorological Radiosondes Database

Operations

Sounding was ended - last measurement: 2023-03-30 13:27:35z

MAP
About Radiosonde

Number: U4564182

Launch Site: Cahersiveen (IE)

Type: RS41

AUX: NO

Frequency: 405.30 MHz

Max Speed: 126 km/h at 9348 m

Average Speed: 57.05 km/h

Max Altitude: 34062 m

Average Ascent Speed: 5.52 m/s

Average Descent Speed: 23.33 m/s

Status: FOUND

Status Changes
Launch Site Type AUX Frequency Status Finder Landing Point Description Changes made by
Cahersiveen (IE) RS41 NO 405.30 MHz FOUND Ei1933 0, 0 In middle of the field. Balloon burst ei1933 - 2023-03-30 15:53:01z
APRS Statistics

Received Frames: 491

First Frame [UTC]: 2023-03-30 11:36:04z

Last Frame [UTC]: 2023-03-30 13:27:35z

Receivers: ASIA-14, EI1933-14, G1MLO-11

Flight Time: 01:51:31 h

Distance From First Measurement: 95.82 km

Nearest City: Mallow (IE) [23.80 km]

Nearest Hunter: ei1933 [9.99 km]

Ground Altitude: 131 m

Distance from QTH: 0.00 km

APRS Data
Receiver Number Date/Time [UTC] φ λ Course [°] Speed [km/h] Altitude [m] Description
EI1933-14U45641822023-03-30 13:27:3552.3364-8.789051648215Clb=-12.5m/s t=11.7C h=76.7% 405.30MHz Type=RS41-SG Details on http://radiosondy.info
EI1933-14U45641822023-03-30 13:27:2952.3357-8.789391750288Clb=-12.2m/s t=11.0C h=79.4% 405.30MHz Type=RS41-SG Details on http://radiosondy.info
EI1933-14U45641822023-03-30 13:27:2352.335-8.789721648359Clb=-13.7m/s t=10.4C h=81.5% 405.30MHz Type=RS41-SG batt=2.7V Details on http://radiosondy.info
EI1933-14U45641822023-03-30 13:27:1752.3343-8.790122346433Clb=-13.0m/s t=9.6C h=84.8% 405.30MHz Type=RS41-SG Details on http://radiosondy.info
EI1933-14U45641822023-03-30 13:27:1152.3337-8.790551946508Clb=-12.6m/s t=9.1C h=84.8% 405.30MHz Type=RS41-SG Details on http://radiosondy.info
EI1933-14U45641822023-03-30 13:27:0552.333-8.790932244582Clb=-13.1m/s t=8.5C h=86.7% 405.30MHz Type=RS41-SG batt=2.6V Details on http://radiosondy.info
EI1933-14U45641822023-03-30 13:26:5952.3324-8.791332246657Clb=-12.5m/s t=8.0C h=87.8% 405.30MHz Type=RS41-SG Details on http://radiosondy.info
EI1933-14U45641822023-03-30 13:26:5352.3318-8.791741846730Clb=-11.8m/s t=7.4C h=90.1% 405.30MHz Type=RS41-SG Details on http://radiosondy.info
EI1933-14U45641822023-03-30 13:26:4752.3311-8.79211946803Clb=-12.5m/s t=7.1C h=87.6% 405.30MHz Type=RS41-SG TxOff=8h07m batt=2.7V Details on http://radiosondy.info
EI1933-14U45641822023-03-30 13:26:4152.3305-8.792472146875Clb=-12.5m/s t=6.7C h=85.6% 405.30MHz Type=RS41-SG Details on http://radiosondy.info
EI1933-14U45641822023-03-30 13:26:3552.3299-8.792872048946Clb=-12.2m/s t=6.1C h=87.2% 405.30MHz Type=RS41-SG Details on http://radiosondy.info
EI1933-14U45641822023-03-30 13:26:2952.3292-8.7932419461018Clb=-12.5m/s t=5.7C h=84.1% 405.30MHz Type=RS41-SG batt=2.7V Details on http://radiosondy.info
ASIA-14U45641822023-03-30 13:26:2652.3287-8.793518461068Clb=-13.4m/s t=5.4C h=85.7% p=-1.0hPa 405.300 MHz Type=RS41-SG ser=U4564182 Radiosonde
EI1933-14U45641822023-03-30 13:26:2352.3285-8.7936319481094Clb=-13.4m/s t=5.1C h=88.5% 405.30MHz Type=RS41-SG Details on http://radiosondy.info
EI1933-14U45641822023-03-30 13:26:1752.3278-8.7940723541171Clb=-13.6m/s t=4.5C h=92.2% 405.30MHz Type=RS41-SG Details on http://radiosondy.info
EI1933-14U45641822023-03-30 13:26:1152.3271-8.7945622541249Clb=-13.6m/s t=3.9C h=94.3% 405.30MHz Type=RS41-SG batt=2.6V Details on http://radiosondy.info
EI1933-14U45641822023-03-30 13:26:0652.3265-8.7949622501314Clb=-13.5m/s t=3.5C h=95.6% 405.30MHz Type=RS41-SG Details on http://radiosondy.info
EI1933-14U45641822023-03-30 13:26:0052.3258-8.7954223521390Clb=-12.9m/s t=3.0C h=97.3% 405.30MHz Type=RS41-SG Details on http://radiosondy.info
ASIA-14U45641822023-03-30 13:25:5452.3251-8.7958924501466Clb=-13.2m/s t=2.6C h=97.4% p=-1.0hPa 405.300 MHz Type=RS41-SG ser=U4564182 Radiosonde
EI1933-14U45641822023-03-30 13:25:4852.3244-8.7964224521544Clb=-13.2m/s t=2.0C h=98.1% 405.30MHz Type=RS41-SG Details on http://radiosondy.info
EI1933-14U45641822023-03-30 13:25:4252.3237-8.7969325501622Clb=-13.4m/s t=1.6C h=95.7% 405.30MHz Type=RS41-SG Details on http://radiosondy.info
EI1933-14U45641822023-03-30 13:25:3652.323-8.7974725521702Clb=-13.5m/s t=1.0C h=97.9% 405.30MHz Type=RS41-SG batt=2.6V Details on http://radiosondy.info
EI1933-14U45641822023-03-30 13:25:3052.3223-8.7979828521780Clb=-13.6m/s t=0.5C h=97.7% 405.30MHz Type=RS41-SG Details on http://radiosondy.info
EI1933-14U45641822023-03-30 13:25:2452.3216-8.7985329501858Clb=-13.8m/s t=0.1C h=95.2% 405.30MHz Type=RS41-SG Details on http://radiosondy.info
ASIA-14U45641822023-03-30 13:25:2352.3215-8.7986329501871Clb=-14.0m/s t=0.2C h=93.4% p=-1.0hPa 405.300 MHz Type=RS41-SG ser=U4564182 Radiosonde
EI1933-14U45641822023-03-30 13:25:1852.3209-8.7991428521939Clb=-13.7m/s t=0.0C h=85.0% 405.30MHz Type=RS41-SG batt=2.6V Details on http://radiosondy.info
EI1933-14U45641822023-03-30 13:25:1252.3203-8.7997430502017Clb=-13.8m/s t=-0.4C h=80.6% 405.30MHz Type=RS41-SG Details on http://radiosondy.info
EI1933-14U45641822023-03-30 13:25:0652.3196-8.8003229502097Clb=-13.6m/s t=-1.1C h=86.9% 405.30MHz Type=RS41-SG Details on http://radiosondy.info
EI1933-14U45641822023-03-30 13:25:0052.3189-8.8008727522175Clb=-13.6m/s t=-1.7C h=82.6% 405.30MHz Type=RS41-SG TxOff=8h08m batt=2.6V Details on http://radiosondy.info
EI1933-14U45641822023-03-30 13:24:5452.3183-8.8014327522255Clb=-13.9m/s t=-2.1C h=68.4% 405.30MHz Type=RS41-SG Details on http://radiosondy.info
ASIA-14U45641822023-03-30 13:24:5252.318-8.8016121542282Clb=-13.2m/s t=-2.4C h=68.3% p=-1.0hPa 405.300 MHz Type=RS41-SG ser=U4564182 Radiosonde
EI1933-14U45641822023-03-30 13:24:4852.3176-8.8019526522337Clb=-14.1m/s t=-2.7C h=71.3% 405.30MHz Type=RS41-SG Details on http://radiosondy.info
EI1933-14U45641822023-03-30 13:24:4252.3169-8.8024927502419Clb=-13.7m/s t=-3.2C h=68.1% 405.30MHz Type=RS41-SG batt=2.6V Details on http://radiosondy.info
EI1933-14U45641822023-03-30 13:24:3652.3162-8.8030325462500Clb=-13.3m/s t=-3.5C h=55.0% 405.30MHz Type=RS41-SG Details on http://radiosondy.info
EI1933-14U45641822023-03-30 13:24:3052.3156-8.8035224442580Clb=-13.4m/s t=-4.2C h=87.7% 405.30MHz Type=RS41-SG Details on http://radiosondy.info
EI1933-14U45641822023-03-30 13:24:2352.3149-8.8040626442674Clb=-14.7m/s t=-5.0C h=90.1% 405.30MHz Type=RS41-SG batt=2.6V Details on http://radiosondy.info
ASIA-14U45641822023-03-30 13:24:2152.3147-8.8042122442702Clb=-14.9m/s t=-4.9C h=79.9% p=-1.0hPa 405.300 MHz Type=RS41-SG ser=U4564182 Radiosonde
EI1933-14U45641822023-03-30 13:24:1752.3143-8.8044822462758Clb=-13.9m/s t=-4.8C h=60.2% 405.30MHz Type=RS41-SG Details on http://radiosondy.info
EI1933-14U45641822023-03-30 13:24:1152.3137-8.8048622482840Clb=-14.0m/s t=-5.5C h=59.6% 405.30MHz Type=RS41-SG Details on http://radiosondy.info
EI1933-14U45641822023-03-30 13:24:0552.313-8.8052719482920Clb=-13.2m/s t=-5.9C h=55.1% 405.30MHz Type=RS41-SG TxOff=8h09m batt=2.6V Details on http://radiosondy.info
EI1933-14U45641822023-03-30 13:23:5952.3123-8.8057325482999Clb=-13.8m/s t=-6.1C h=58.2% 405.30MHz Type=RS41-SG Details on http://radiosondy.info
EI1933-14U45641822023-03-30 13:23:5352.3117-8.8062225503087Clb=-14.8m/s t=-6.6C h=45.1% 405.30MHz Type=RS41-SG Details on http://radiosondy.info
ASIA-14U45641822023-03-30 13:23:5052.3113-8.8064826463129Clb=-13.5m/s t=-7.0C h=44.9% p=-1.0hPa 405.300 MHz Type=RS41-SG ser=U4564182 Radiosonde
EI1933-14U45641822023-03-30 13:23:3752.3098-8.8076523573307Clb=-12.7m/s t=-8.3C h=53.7% 405.30MHz Type=RS41-SG batt=2.6V Details on http://radiosondy.info
EI1933-14U45641822023-03-30 13:23:2152.3079-8.809428573516Clb=-13.3m/s t=-9.6C h=53.8% 405.30MHz Type=RS41-SG Details on http://radiosondy.info
ASIA-14U45641822023-03-30 13:23:1952.3076-8.8096228573543Clb=-13.7m/s t=-9.7C h=45.4% p=-1.0hPa 405.300 MHz Type=RS41-SG ser=U4564182 Radiosonde
EI1933-14U45641822023-03-30 13:23:0552.3058-8.8111128543722Clb=-12.6m/s t=-11.2C h=34.4% 405.30MHz Type=RS41-SG Details on http://radiosondy.info
EI1933-14U45641822023-03-30 13:22:5052.3041-8.8125628543920Clb=-13.8m/s t=-12.9C h=29.0% 405.30MHz Type=RS41-SG batt=2.6V Details on http://radiosondy.info
ASIA-14U45641822023-03-30 13:22:4852.3038-8.8127627503947Clb=-13.8m/s t=-13.1C h=28.5% p=-1.0hPa 405.300 MHz Type=RS41-SG ser=U4564182 Radiosonde
EI1933-14U45641822023-03-30 13:22:3452.3022-8.8142733594131Clb=-13.8m/s t=-14.2C h=41.4% 405.30MHz Type=RS41-SG Details on http://radiosondy.info
EI1933-14U45641822023-03-30 13:22:1852.3002-8.8164132614342Clb=-13.0m/s t=-15.2C h=12.5% 405.30MHz Type=RS41-SG Details on http://radiosondy.info
ASIA-14U45641822023-03-30 13:22:1752.3-8.8165430634355Clb=-13.3m/s t=-15.4C h=12.2% p=-1.0hPa 405.300 MHz Type=RS41-SG ser=U4564182 Radiosonde
EI1933-14U45641822023-03-30 13:22:0252.2981-8.8185430614544Clb=-13.2m/s t=-16.7C h=9.8% 405.30MHz Type=RS41-SG TxOff=8h11m batt=2.5V Details on http://radiosondy.info
EI1933-14U45641822023-03-30 13:21:4652.2961-8.820634574742Clb=-12.4m/s t=-18.3C h=10.2% 405.30MHz Type=RS41-SG Details on http://radiosondy.info
EI1933-14U45641822023-03-30 13:21:3052.2941-8.8226834594931Clb=-10.7m/s t=-19.7C h=12.8% 405.30MHz Type=RS41-SG Details on http://radiosondy.info
ASIA-14U45641822023-03-30 13:21:1552.2923-8.8246833595095Clb=-12.0m/s t=-21.2C h=19.2% p=-1.0hPa 405.300 MHz Type=RS41-SG ser=U4564182 Radiosonde
EI1933-14U45641822023-03-30 13:21:1452.2922-8.8248233575106Clb=-11.5m/s t=-21.3C h=20.9% 405.30MHz Type=RS41-SG batt=2.6V Details on http://radiosondy.info
EI1933-14U45641822023-03-30 13:20:5852.2905-8.8272149565279Clb=-11.9m/s t=-22.1C h=51.6% 405.30MHz Type=RS41-SG Details on http://radiosondy.info
ASIA-14U45641822023-03-30 13:20:4452.2892-8.829649575429Clb=-9.9m/s t=-23.4C h=59.2% p=-1.0hPa 405.300 MHz Type=RS41-SG ser=U4564182 Radiosonde
EI1933-14U45641822023-03-30 13:20:4252.289-8.8299653635448Clb=-9.8m/s t=-23.5C h=67.0% 405.30MHz Type=RS41-SG Details on http://radiosondy.info
EI1933-14U45641822023-03-30 13:20:2752.2877-8.8331955675595Clb=-9.9m/s t=-23.7C h=86.0% 405.30MHz Type=RS41-SG batt=2.6V Details on http://radiosondy.info
ASIA-14U45641822023-03-30 13:20:1752.2864-8.8363957675778Clb=-13.2m/s t=-25.2C h=78.5% p=-1.0hPa 405.300 MHz Type=RS41-SG ser=U4564182 Radiosonde
EI1933-14U45641822023-03-30 13:20:1152.2862-8.8368457725804Clb=-13.1m/s t=-25.4C h=81.9% 405.30MHz Type=RS41-SG Details on http://radiosondy.info
EI1933-14U45641822023-03-30 13:19:5652.2848-8.8406358805982Clb=-11.7m/s t=-26.5C h=91.7% 405.30MHz Type=RS41-SG Details on http://radiosondy.info
ASIA-14U45641822023-03-30 13:19:4252.2833-8.8448560836164Clb=-13.8m/s t=-27.8C h=100.0% p=-1.0hPa 405.300 MHz Type=RS41-SG ser=U4564182 Radiosonde
EI1933-14U45641822023-03-30 13:19:4052.2832-8.8451561816177Clb=-13.9m/s t=-27.8C 405.30MHz Type=RS41-SG TxOff=8h14m batt=2.5V Details on http://radiosondy.info
EI1933-14U45641822023-03-30 13:19:2452.2817-8.8498865786383Clb=-12.2m/s t=-29.2C h=94.6% 405.30MHz Type=RS41-SG Details on http://radiosondy.info
ASIA-14U45641822023-03-30 13:19:1152.2807-8.8536967766550Clb=-13.8m/s t=-30.3C h=84.0% p=-1.0hPa 405.300 MHz Type=RS41-SG ser=U4564182 Radiosonde
EI1933-14U45641822023-03-30 13:19:0852.2804-8.8545367746589Clb=-13.1m/s t=-30.5C h=86.1% 405.30MHz Type=RS41-SG Details on http://radiosondy.info
EI1933-14U45641822023-03-30 13:18:5252.2793-8.8590370766805Clb=-13.9m/s t=-32.3C h=87.3% 405.30MHz Type=RS41-SG batt=2.5V Details on http://radiosondy.info
ASIA-14U45641822023-03-30 13:18:4052.2785-8.8627568746982Clb=-12.2m/s t=-33.7C h=75.3% p=-1.0hPa 405.300 MHz Type=RS41-SG ser=U4564182 Radiosonde
EI1933-14U45641822023-03-30 13:18:3652.2783-8.8636369787020Clb=-11.2m/s t=-33.9C h=73.2% 405.30MHz Type=RS41-SG Details on http://radiosondy.info
EI1933-14U45641822023-03-30 13:18:2052.2772-8.8682970787227Clb=-13.9m/s t=-35.4C h=52.2% 405.30MHz Type=RS41-SG Details on http://radiosondy.info
ASIA-14U45641822023-03-30 13:18:0952.2763-8.8718370787389Clb=-13.9m/s t=-36.8C h=42.2% p=-1.0hPa 405.300 MHz Type=RS41-SG ser=U4564182 Radiosonde
EI1933-14U45641822023-03-30 13:18:0452.2761-8.8730372817444Clb=-14.4m/s t=-37.3C h=44.2% 405.30MHz Type=RS41-SG batt=2.6V Details on http://radiosondy.info
EI1933-14U45641822023-03-30 13:17:4852.275-8.8780871857667Clb=-14.6m/s t=-39.2C h=43.7% 405.30MHz Type=RS41-SG Details on http://radiosondy.info
ASIA-14U45641822023-03-30 13:17:3852.2741-8.8819569857839Clb=-14.5m/s t=-40.9C h=50.8% p=-1.0hPa 405.300 MHz Type=RS41-SG ser=U4564182 Radiosonde
EI1933-14U45641822023-03-30 13:17:3252.2738-8.8832570917894Clb=-13.4m/s t=-41.4C h=57.1% 405.30MHz Type=RS41-SG Details on http://radiosondy.info
EI1933-14U45641822023-03-30 13:17:1652.2724-8.88874661008110Clb=-14.1m/s t=-43.2C h=57.7% 405.30MHz Type=RS41-SG TxOff=8h16m batt=2.6V Details on http://radiosondy.info
ASIA-14U45641822023-03-30 13:17:0752.2714-8.89246651028257Clb=-16.0m/s t=-44.6C h=56.6% p=-1.0hPa 405.300 MHz Type=RS41-SG ser=U4564182 Radiosonde
EI1933-14U45641822023-03-30 13:17:0052.2707-8.89474681068347Clb=-15.7m/s t=-45.4C h=60.5% 405.30MHz Type=RS41-SG Details on http://radiosondy.info
EI1933-14U45641822023-03-30 13:16:4452.269-8.90105641118591Clb=-15.3m/s t=-47.5C h=60.7% 405.30MHz Type=RS41-SG Details on http://radiosondy.info
ASIA-14U45641822023-03-30 13:16:3652.2679-8.90464611118729Clb=-15.6m/s t=-48.8C h=55.6% p=-1.0hPa 405.300 MHz Type=RS41-SG ser=U4564182 Radiosonde
EI1933-14U45641822023-03-30 13:16:2852.2669-8.90748611198837Clb=-15.3m/s t=-49.7C h=60.4% 405.30MHz Type=RS41-SG batt=2.6V Details on http://radiosondy.info
EI1933-14U45641822023-03-30 13:16:1252.2646-8.91415601249084Clb=-16.3m/s t=-52.0C h=62.4% 405.30MHz Type=RS41-SG Details on http://radiosondy.info
ASIA-14U45641822023-03-30 13:16:0552.2633-8.91754551249214Clb=-16.5m/s t=-53.1C h=53.5% p=-1.0hPa 405.300 MHz Type=RS41-SG ser=U4564182 Radiosonde
EI1933-14U45641822023-03-30 13:15:5652.2619-8.92093561269348Clb=-16.6m/s t=-54.2C h=53.9% 405.30MHz Type=RS41-SG Details on http://radiosondy.info
EI1933-14U45641822023-03-30 13:15:4052.2591-8.92762581139579Clb=-13.3m/s t=-55.5C h=45.5% 405.30MHz Type=RS41-SG batt=2.5V Details on http://radiosondy.info
ASIA-14U45641822023-03-30 13:15:3352.2576-8.93165601099730Clb=-16.5m/s t=-56.3C h=35.6% p=-1.0hPa 405.300 MHz Type=RS41-SG ser=U4564182 Radiosonde
EI1933-14U45641822023-03-30 13:15:2452.2569-8.93395651009832Clb=-17.8m/s t=-56.6C h=36.9% 405.30MHz Type=RS41-SG Details on http://radiosondy.info
EI1933-14U45641822023-03-30 13:15:0852.2553-8.93987699810120Clb=-17.5m/s t=-56.3C h=16.9% 405.30MHz Type=RS41-SG Details on http://radiosondy.info
ASIA-14U45641822023-03-30 13:15:0252.2543-8.94363709610293Clb=-18.3m/s t=-55.1C h=9.7% p=-1.0hPa 405.300 MHz Type=RS41-SG ser=U4564182 Radiosonde
EI1933-14U45641822023-03-30 13:14:5252.2539-8.9458719110405Clb=-18.9m/s t=-55.7C h=12.6% 405.30MHz Type=RS41-SG TxOff=8h19m batt=2.5V Details on http://radiosondy.info
EI1933-14U45641822023-03-30 13:14:3652.2525-8.95126210010688Clb=-16.9m/s t=-57.1C h=10.3% 405.30MHz Type=RS41-SG Details on http://radiosondy.info
ASIA-14U45641822023-03-30 13:14:3152.2518-8.95323589810791Clb=-19.0m/s t=-57.0C h=5.3% p=-1.0hPa 405.300 MHz Type=RS41-SG ser=U4564182 Radiosonde
EI1933-14U45641822023-03-30 13:14:2052.2505-8.95681639110962Clb=-16.7m/s t=-56.0C h=6.6% 405.30MHz Type=RS41-SG Details on http://radiosondy.info
EI1933-14U45641822023-03-30 13:14:0452.2493-8.96234717411230Clb=-18.9m/s t=-53.6C h=4.3% 405.30MHz Type=RS41-SG batt=2.5V Details on http://radiosondy.info
ASIA-14U45641822023-03-30 13:14:0052.249-8.96346657211305Clb=-19.3m/s t=-53.0C h=1.7% p=-1.0hPa 405.300 MHz Type=RS41-SG ser=U4564182 Radiosonde
EI1933-14U45641822023-03-30 13:13:4852.248-8.96658617611534Clb=-19.3m/s t=-51.1C h=3.4% 405.30MHz Type=RS41-SG Details on http://radiosondy.info
EI1933-14U45641822023-03-30 13:13:3252.2467-8.97094686511841Clb=-20.1m/s t=-51.1C h=3.3% 405.30MHz Type=RS41-SG Details on http://radiosondy.info
ASIA-14U45641822023-03-30 13:13:2952.2465-8.97169646711902Clb=-20.9m/s t=-50.8C h=1.3% p=-1.0hPa 405.300 MHz Type=RS41-SG ser=U4564182 Radiosonde
EI1933-14U45641822023-03-30 13:13:1652.2456-8.9748666512166Clb=-19.6m/s t=-51.1C h=3.5% 405.30MHz Type=RS41-SG batt=2.5V Details on http://radiosondy.info
EI1933-14U45641822023-03-30 13:13:0052.2446-8.9787666712508Clb=-23.3m/s t=-50.6C h=3.3% 405.30MHz Type=RS41-SG Details on http://radiosondy.info
ASIA-14U45641822023-03-30 13:12:5952.2444-8.97919676512553Clb=-22.0m/s t=-273.0C h=-1.0% p=-1.0hPa 405.300 MHz Type=RS41-SG ser=U4564182 Radiosonde
EI1933-14U45641822023-03-30 13:12:4652.2436-8.98244716712824Clb=-20.0m/s t=-50.2C h=3.1% 405.30MHz Type=RS41-SG Details on http://radiosondy.info
EI1933-14U45641822023-03-30 13:12:2952.2429-8.98652727013165Clb=-21.5m/s t=-51.1C h=3.3% 405.30MHz Type=RS41-SG TxOff=8h21m batt=2.6V Details on http://radiosondy.info
ASIA-14U45641822023-03-30 13:12:2752.2422-8.99007697413440Clb=-22.7m/s t=-273.0C h=-1.0% p=-1.0hPa 405.300 MHz Type=RS41-SG ser=U4564182 Radiosonde
EI1933-14U45641822023-03-30 13:12:1352.242-8.99091696713507Clb=-22.9m/s t=-51.3C h=3.2% 405.30MHz Type=RS41-SG Details on http://radiosondy.info
EI1933-14U45641822023-03-30 13:11:5752.2409-8.99472636113864Clb=-21.7m/s t=-52.3C h=3.7% 405.30MHz Type=RS41-SG Details on http://radiosondy.info
ASIA-14U45641822023-03-30 13:11:5652.2407-8.99514586113907Clb=-22.6m/s t=-273.0C h=-1.0% p=-1.0hPa 405.300 MHz Type=RS41-SG ser=U4564182 Radiosonde
EI1933-14U45641822023-03-30 13:11:4152.2394-8.99783516314230Clb=-23.2m/s t=-51.3C h=3.4% 405.30MHz Type=RS41-SG batt=2.6V Details on http://radiosondy.info
EI1933-14U45641822023-03-30 13:11:2552.238-9.0011555914619Clb=-24.5m/s t=-51.6C h=3.4% 405.30MHz Type=RS41-SG Details on http://radiosondy.info
EI1933-14U45641822023-03-30 13:11:0952.2369-9.00443674815011Clb=-26.0m/s t=-51.7C h=3.3% 405.30MHz Type=RS41-SG Details on http://radiosondy.info
EI1933-14U45641822023-03-30 13:10:5352.2361-9.00731664115404Clb=-24.5m/s t=-52.5C h=3.4% 405.30MHz Type=RS41-SG batt=2.5V Details on http://radiosondy.info
EI1933-14U45641822023-03-30 13:10:3852.2356-9.00978693515799Clb=-26.1m/s t=-53.8C h=3.8% 405.30MHz Type=RS41-SG Details on http://radiosondy.info
EI1933-14U45641822023-03-30 13:10:2252.2349-9.01161473516206Clb=-25.1m/s t=-52.8C h=3.4% 405.30MHz Type=RS41-SG Details on http://radiosondy.info
EI1933-14U45641822023-03-30 13:10:0652.2339-9.01331604416634Clb=-28.8m/s t=-53.6C h=3.7% 405.30MHz Type=RS41-SG TxOff=8h23m batt=2.5V Details on http://radiosondy.info
EI1933-14U45641822023-03-30 13:09:4952.2333-9.0159883117070Clb=-24.8m/s t=-54.2C h=3.9% 405.30MHz Type=RS41-SG Details on http://radiosondy.info
EI1933-14U45641822023-03-30 13:09:3452.2331-9.01781783317481Clb=-29.0m/s t=-54.9C h=3.8% 405.30MHz Type=RS41-SG Details on http://radiosondy.info
EI1933-14U45641822023-03-30 13:09:1852.2327-9.01991623017952Clb=-33.1m/s t=-55.9C h=4.1% 405.30MHz Type=RS41-SG batt=2.6V Details on http://radiosondy.info
EI1933-14U45641822023-03-30 13:09:0252.2322-9.0215603918462Clb=-32.1m/s t=-57.1C h=4.7% 405.30MHz Type=RS41-SG Details on http://radiosondy.info
ASIA-14U45641822023-03-30 13:08:5052.2315-9.02348503518903Clb=-30.9m/s t=-273.0C h=-1.0% p=-1.0hPa 405.300 MHz Type=RS41-SG ser=U4564182 Radiosonde
EI1933-14U45641822023-03-30 13:08:4652.2314-9.02371513718968Clb=-33.6m/s t=-55.3C h=4.0% 405.30MHz Type=RS41-SG Details on http://radiosondy.info
EI1933-14U45641822023-03-30 13:08:3252.2304-9.02562613319494Clb=-33.6m/s t=-56.1C h=4.2% 405.30MHz Type=RS41-SG batt=2.6V Details on http://radiosondy.info
ASIA-14U45641822023-03-30 13:08:2052.23-9.02723862419898Clb=-35.4m/s t=-273.0C h=-1.0% p=-1.0hPa 405.300 MHz Type=RS41 ser=U4564182 Radiosonde
EI1933-14U45641822023-03-30 13:08:1652.23-9.02762832620036Clb=-35.3m/s t=-57.4C h=4.5% 405.30MHz Type=RS41-SG Details on http://radiosondy.info
EI1933-14U45641822023-03-30 13:07:5852.2297-9.02922772020602Clb=-35.8m/s t=-58.0C h=4.7% 405.30MHz Type=RS41-SG Details on http://radiosondy.info
EI1933-14U45641822023-03-30 13:07:4252.2296-9.03049501521181Clb=-38.1m/s t=-58.5C h=4.7% 405.30MHz Type=RS41-SG TxOff=8h26m batt=2.6V Details on http://radiosondy.info
EI1933-14U45641822023-03-30 13:07:2752.2291-9.03111492821795Clb=-37.8m/s t=-58.9C h=4.8% 405.30MHz Type=RS41-SG Details on http://radiosondy.info
ASIA-14U45641822023-03-30 13:07:1752.2286-9.03238662622335Clb=-38.5m/s t=-273.0C h=-1.0% p=-1.0hPa 405.300 MHz Type=RS41 ser=U4564182 Radiosonde
EI1933-14U45641822023-03-30 13:07:1152.2286-9.0326842422412Clb=-38.6m/s t=-59.4C h=4.9% 405.30MHz Type=RS41-SG Details on http://radiosondy.info
EI1933-14U45641822023-03-30 13:06:5452.2287-9.033941081323061Clb=-41.6m/s t=-59.3C h=4.8% 405.30MHz Type=RS41-SG batt=2.6V Details on http://radiosondy.info
EI1933-14U45641822023-03-30 13:06:3852.2287-9.034771021123741Clb=-43.6m/s t=-60.0C h=5.0% 405.30MHz Type=RS41-SG Details on http://radiosondy.info
EI1933-14U45641822023-03-30 13:06:2252.2288-9.035193501924442Clb=-44.2m/s t=-61.1C h=5.4% 405.30MHz Type=RS41-SG Details on http://radiosondy.info
EI1933-14U45641822023-03-30 13:06:0652.2284-9.03609862225172Clb=-48.8m/s t=-61.4C h=6.2% 405.30MHz Type=RS41-SG batt=2.6V Details on http://radiosondy.info
EI1933-14U45641822023-03-30 13:05:5052.2285-9.037581132625938Clb=-49.1m/s t=-58.7C h=5.1% 405.30MHz Type=RS41-SG Details on http://radiosondy.info
ASIA-14U45641822023-03-30 13:05:4552.2287-9.038311152426348Clb=-53.8m/s t=-273.0C h=-1.0% p=-1.0hPa 405.300 MHz Type=RS41 ser=U4564182 Radiosonde
EI1933-14U45641822023-03-30 13:05:3752.2289-9.039181132626810Clb=-58.3m/s t=-58.1C h=5.1% 405.30MHz Type=RS41-SG Details on http://radiosondy.info
EI1933-14U45641822023-03-30 13:05:2152.2293-9.040591192027697Clb=-54.4m/s t=-56.1C h=4.3% 405.30MHz Type=RS41-SG TxPastBurst=8h30m batt=2.6V Details on http://radiosondy.info
ASIA-14U45641822023-03-30 13:05:1652.2295-9.0411332228012Clb=-53.4m/s t=-273.0C h=-1.0% p=-1.0hPa 405.300 MHz Type=RS41 ser=U4564182 Radiosonde
EI1933-14U45641822023-03-30 13:05:0752.2297-9.041751063028574Clb=-58.9m/s t=-56.1C h=4.5% 405.30MHz Type=RS41-SG Details on http://radiosondy.info
EI1933-14U45641822023-03-30 13:04:5052.2299-9.04366964329564Clb=-64.1m/s t=-55.1C h=4.2% 405.30MHz Type=RS41-SG Details on http://radiosondy.info
G1MLO-11U45641822023-03-30 13:04:4852.2299-9.04382944129627Clb=-64.2m/s t=-55.1C h=1.1% 405.300MHz Type=RS41-SG TxOff=8h29m rdzTTGOsonde
ASIA-14U45641822023-03-30 13:04:4452.2299-9.04495964330058Clb=-57.9m/s t=-273.0C h=-1.0% p=-1.0hPa 405.300 MHz Type=RS41 ser=U4564182 Radiosonde
EI1933-14U45641822023-03-30 13:04:3352.2301-9.046391045730491Clb=-53.6m/s t=-54.7C h=4.5% 405.30MHz Type=RS41-SG batt=2.7V Details on http://radiosondy.info
G1MLO-11U45641822023-03-30 13:04:2552.2301-9.04766865930828Clb=-53.8m/s t=-54.7C h=1.2% 405.300MHz Type=RS41-SG rdzTTGOsonde
EI1933-14U45641822023-03-30 13:04:1652.2299-9.0501917631361Clb=-59.4m/s t=-51.8C h=3.8% 405.30MHz Type=RS41-SG Details on http://radiosondy.info
G1MLO-11U45641822023-03-30 13:04:0452.23-9.053231007631950Clb=-62.0m/s t=-50.8C h=0.9% 405.300MHz Type=RS41-SG rdzTTGOsonde
EI1933-14U45641822023-03-30 13:03:5852.2302-9.05501927632321Clb=-62.3m/s t=-51.3C h=4.1% 405.30MHz Type=RS41-SG Details on http://radiosondy.info
G1MLO-11U45641822023-03-30 13:03:4252.2304-9.059561057233325Clb=-69.4m/s t=-48.3C h=0.7% 405.300MHz Type=RS41-SG rdzTTGOsonde
EI1933-14U45641822023-03-30 13:03:2452.2309-9.063831016734062Clb=9.2m/s t=-48.6C h=3.6% 405.30MHz Type=RS41-SG Details on http://radiosondy.info
G1MLO-11U45641822023-03-30 13:03:2252.2309-9.06434876934045Clb=7.8m/s t=-48.7C h=0.8% 405.300MHz Type=RS41-SG rdzTTGOsonde
EI1933-14U45641822023-03-30 13:03:0852.2313-9.067951096733946Clb=7.6m/s t=-48.8C h=3.6% 405.30MHz Type=RS41-SG Details on http://radiosondy.info
G1MLO-11U45641822023-03-30 13:03:0052.2315-9.06987978733895Clb=5.8m/s t=-48.8C h=0.9% 405.300MHz Type=RS41-SG rdzTTGOsonde
EI1933-14U45641822023-03-30 13:02:5252.232-9.07213927033829Clb=7.0m/s t=-48.3C h=3.5% 405.30MHz Type=RS41-SG TxPastBurst=8h30m batt=2.7V Details on http://radiosondy.info
G1MLO-11U45641822023-03-30 13:02:3952.2324-9.075741075933740Clb=9.7m/s t=-48.3C h=0.8% 405.300MHz Type=RS41-SG rdzTTGOsonde
EI1933-14U45641822023-03-30 13:02:3652.2325-9.076541017633710Clb=7.7m/s t=-48.5C h=3.6% 405.30MHz Type=RS41-SG Details on http://radiosondy.info
EI1933-14U45641822023-03-30 13:02:2052.2329-9.081231127033591Clb=10.6m/s t=-48.3C h=3.5% 405.30MHz Type=RS41-SG Details on http://radiosondy.info
G1MLO-11U45641822023-03-30 13:02:1952.2329-9.081231136733591Clb=10.6m/s t=-48.4C h=0.9% 405.300MHz Type=RS41-SG rdzTTGOsonde
EI1933-14U45641822023-03-30 13:02:0452.2335-9.085581086733469Clb=6.3m/s t=-48.6C h=3.5% 405.30MHz Type=RS41-SG batt=2.6V Details on http://radiosondy.info
G1MLO-11U45641822023-03-30 13:01:5852.2339-9.086861206133431Clb=6.7m/s t=-48.5C h=0.8% 405.300MHz Type=RS41-SG rdzTTGOsonde
EI1933-14U45641822023-03-30 13:01:5452.2345-9.089451197633348Clb=8.2m/s t=-48.6C h=3.5% 405.30MHz Type=RS41-SG Details on http://radiosondy.info
G1MLO-11U45641822023-03-30 13:01:5352.235-9.092031087633282Clb=6.5m/s t=-48.5C h=0.9% 405.300MHz Type=RS41-SG rdzTTGOsonde
EI1933-14U45641822023-03-30 13:01:5052.2355-9.095041077433205Clb=7.8m/s t=-48.5C h=3.6% 405.30MHz Type=RS41-SG Details on http://radiosondy.info
G1MLO-11U45641822023-03-30 13:01:4752.2359-9.0982998333123Clb=7.3m/s t=-48.2C h=0.9% 405.300MHz Type=RS41-SG rdzTTGOsonde
EI1933-14U45641822023-03-30 13:01:4652.236-9.099761038333086Clb=6.0m/s t=-47.9C h=3.3% 405.30MHz Type=RS41-SG batt=2.6V Details on http://radiosondy.info
G1MLO-11U45641822023-03-30 13:01:4352.2364-9.10478898532977Clb=7.4m/s t=-47.7C h=0.7% 405.300MHz Type=RS41-SG rdzTTGOsonde
EI1933-14U45641822023-03-30 13:01:3952.2363-9.1108928932859Clb=5.7m/s t=-48.7C h=3.4% 405.30MHz Type=RS41-SG Details on http://radiosondy.info
G1MLO-11U45641822023-03-30 13:01:3752.2364-9.11241008932831Clb=5.4m/s t=-48.7C h=0.8% 405.300MHz Type=RS41-SG rdzTTGOsonde
EI1933-14U45641822023-03-30 13:01:3552.2363-9.11649918032750Clb=8.1m/s t=-48.9C h=3.3% 405.30MHz Type=RS41-SG TxPastBurst=8h30m batt=2.6V Details on http://radiosondy.info
G1MLO-11U45641822023-03-30 13:01:3452.2362-9.11935827632691Clb=8.3m/s t=-49.3C h=0.8% 405.300MHz Type=RS41-SG rdzTTGOsonde
G1MLO-11U45641822023-03-30 13:01:3352.2358-9.12536905732558Clb=7.6m/s t=-52.1C h=1.1% 405.300MHz Type=RS41-SG rdzTTGOsonde
EI1933-14U45641822023-03-30 13:01:2952.2362-9.129841087032445Clb=7.5m/s t=-51.9C h=4.0% 405.30MHz Type=RS41-SG batt=2.6V Details on http://radiosondy.info
EI1933-14U45641822023-03-30 13:01:2552.2371-9.134161107832345Clb=6.6m/s t=-52.2C h=4.1% 405.30MHz Type=RS41-SG Details on http://radiosondy.info
G1MLO-11U45641822023-03-30 13:01:2352.2377-9.136591217832286Clb=7.7m/s t=-52.2C h=1.1% 405.300MHz Type=RS41-SG rdzTTGOsonde
EI1933-14U45641822023-03-30 13:01:2152.2383-9.13883977632242Clb=4.9m/s t=-52.1C h=4.0% 405.30MHz Type=RS41-SG Details on http://radiosondy.info
G1MLO-11U45641822023-03-30 13:01:1852.2391-9.142681117632159Clb=6.4m/s t=-52.0C h=1.0% 405.300MHz Type=RS41-SG rdzTTGOsonde
EI1933-14U45641822023-03-30 13:01:1552.24-9.148591118332032Clb=5.9m/s t=-51.5C h=3.8% 405.30MHz Type=RS41-SG Details on http://radiosondy.info
EI1933-14U45641822023-03-30 13:01:1452.2406-9.15385927831920Clb=6.0m/s t=-52.1C h=3.9% 405.30MHz Type=RS41-SG Details on http://radiosondy.info
EI1933-14U45641822023-03-30 13:01:1352.2408-9.15897908031810Clb=6.7m/s t=-52.4C h=4.0% 405.30MHz Type=RS41-SG TxPastBurst=8h30m batt=2.6V Details on http://radiosondy.info
G1MLO-11U45641822023-03-30 13:01:0452.2408-9.16228967431729Clb=5.0m/s t=-52.9C h=1.1% 405.300MHz Type=RS41-SG rdzTTGOsonde
EI1933-14U45641822023-03-30 13:00:5952.2408-9.16417857631695Clb=4.7m/s t=-52.8C h=4.1% 405.30MHz Type=RS41-SG Details on http://radiosondy.info
EI1933-14U45641822023-03-30 13:00:4052.2406-9.16891896931577Clb=7.2m/s t=-52.3C h=4.1% 405.30MHz Type=RS41-SG Details on http://radiosondy.info
G1MLO-11U45641822023-03-30 13:00:3952.2406-9.16891897831577Clb=7.3m/s t=-52.3C h=1.1% 405.300MHz Type=RS41 rdzTTGOsonde
EI1933-14U45641822023-03-30 13:00:2052.2403-9.17321845731458Clb=7.9m/s t=-51.9C h=3.9% 405.30MHz Type=RS41-SG batt=2.6V Details on http://radiosondy.info
G1MLO-11U45641822023-03-30 13:00:1352.2402-9.17435735931422Clb=8.9m/s t=-51.9C h=0.9% 405.300MHz Type=RS41 rdzTTGOsonde
EI1933-14U45641822023-03-30 12:59:5452.2397-9.17674755231337Clb=7.0m/s t=-52.2C h=3.9% 405.30MHz Type=RS41-SG Details on http://radiosondy.info
G1MLO-11U45641822023-03-30 12:59:4452.2394-9.1785796131268Clb=9.2m/s t=-52.5C h=0.9% 405.300MHz Type=RS41 rdzTTGOsonde
EI1933-14U45641822023-03-30 12:59:3652.2392-9.1799745031215Clb=7.9m/s t=-52.1C h=3.9% 405.30MHz Type=RS41-SG Details on http://radiosondy.info
G1MLO-11U45641822023-03-30 12:59:2052.239-9.18258884331117Clb=8.6m/s t=-52.3C 405.300MHz Type=RS41 rdzTTGOsonde
EI1933-14U45641822023-03-30 12:59:1752.2389-9.18304725431095Clb=6.8m/s t=-52.4C h=3.8% 405.30MHz Type=RS41-SG batt=2.7V Details on http://radiosondy.info
EI1933-14U45641822023-03-30 12:58:5952.2385-9.18653645430976Clb=7.5m/s t=-53.0C h=3.8% 405.30MHz Type=RS41-SG Details on http://radiosondy.info
G1MLO-11U45641822023-03-30 12:58:5552.2384-9.187766730960Clb=7.3m/s 405.300MHz Type=RS41 rdzTTGOsonde
EI1933-14U45641822023-03-30 12:58:3752.2379-9.18993645230857Clb=5.6m/s t=-53.9C h=4.1% 405.30MHz Type=RS41-SG Details on http://radiosondy.info
G1MLO-11U45641822023-03-30 12:58:2952.2378-9.19137864430806Clb=7.4m/s 405.300MHz Type=RS41 rdzTTGOsonde
EI1933-14U45641822023-03-30 12:58:1952.2376-9.19309763530739Clb=7.5m/s t=-54.4C h=4.2% 405.30MHz Type=RS41-SG TxPastBurst=8h30m batt=2.7V Details on http://radiosondy.info
EI1933-14U45641822023-03-30 12:57:5652.2378-9.195251134130621Clb=7.6m/s t=-54.8C h=4.4% 405.30MHz Type=RS41-SG Details on http://radiosondy.info
G1MLO-11U45641822023-03-30 12:57:5352.2379-9.195391233530613Clb=7.0m/s 405.300MHz Type=RS41 rdzTTGOsonde
EI1933-14U45641822023-03-30 12:57:3552.2385-9.19751275030503Clb=7.9m/s t=-54.6C h=4.5% 405.30MHz Type=RS41-SG Details on http://radiosondy.info
G1MLO-11U45641822023-03-30 12:57:2052.239-9.19935965030426Clb=6.0m/s 405.300MHz Type=RS41 rdzTTGOsonde
EI1933-14U45641822023-03-30 12:57:1552.2393-9.200461215730391Clb=6.8m/s t=-54.2C h=4.1% 405.30MHz Type=RS41-SG batt=2.7V Details on http://radiosondy.info
EI1933-14U45641822023-03-30 12:56:5452.2399-9.203991195030276Clb=7.9m/s t=-54.3C h=4.1% 405.30MHz Type=RS41-SG Details on http://radiosondy.info
G1MLO-11U45641822023-03-30 12:56:5152.24-9.204311023530260Clb=6.6m/s 405.300MHz Type=RS41 rdzTTGOsonde
EI1933-14U45641822023-03-30 12:56:3552.2404-9.207031014830161Clb=8.9m/s t=-54.9C h=4.2% 405.30MHz Type=RS41-SG Details on http://radiosondy.info
G1MLO-11U45641822023-03-30 12:56:2052.2408-9.20921174630077Clb=7.7m/s 405.300MHz Type=RS41 rdzTTGOsonde
EI1933-14U45641822023-03-30 12:56:1652.241-9.20991084130049Clb=8.3m/s t=-55.3C h=4.3% 405.30MHz Type=RS41-SG batt=2.7V Details on http://radiosondy.info
EI1933-14U45641822023-03-30 12:55:5452.2417-9.212221143729936Clb=8.2m/s t=-55.8C h=4.4% 405.30MHz Type=RS41-SG Details on http://radiosondy.info
G1MLO-11U45641822023-03-30 12:55:5152.2418-9.21249953329920Clb=6.9m/s 405.300MHz Type=RS41 rdzTTGOsonde
EI1933-14U45641822023-03-30 12:55:3352.2423-9.214291113929819Clb=7.3m/s t=-56.0C h=4.5% 405.30MHz Type=RS41-SG Details on http://radiosondy.info
G1MLO-11U45641822023-03-30 12:55:2352.2425-9.215231144629770Clb=7.5m/s 405.300MHz Type=RS41 rdzTTGOsonde
EI1933-14U45641822023-03-30 12:55:1252.2429-9.21659984329709Clb=5.3m/s t=-55.7C h=4.3% 405.30MHz Type=RS41-SG TxPastBurst=8h30m batt=2.7V Details on http://radiosondy.info
G1MLO-11U45641822023-03-30 12:54:5752.2433-9.218431174329634Clb=6.9m/s 405.300MHz Type=RS41 rdzTTGOsonde
EI1933-14U45641822023-03-30 12:54:5152.2435-9.219111073929601Clb=5.3m/s t=-56.1C h=4.5% 405.30MHz Type=RS41-SG Details on http://radiosondy.info
EI1933-14U45641822023-03-30 12:54:3052.244-9.22145993329496Clb=6.1m/s t=-56.2C h=4.4% 405.30MHz Type=RS41-SG Details on http://radiosondy.info
EI1933-14U45641822023-03-30 12:54:1052.2446-9.22341193529393Clb=6.4m/s t=-56.3C h=4.4% 405.30MHz Type=RS41-SG batt=2.7V Details on http://radiosondy.info
EI1933-14U45641822023-03-30 12:53:4852.2455-9.225061202629288Clb=5.1m/s t=-56.3C h=4.5% 405.30MHz Type=RS41-SG Details on http://radiosondy.info
EI1933-14U45641822023-03-30 12:53:2752.2461-9.22619981929186Clb=6.3m/s t=-56.3C h=4.2% 405.30MHz Type=RS41-SG Details on http://radiosondy.info
EI1933-14U45641822023-03-30 12:53:0552.2465-9.227091202429085Clb=7.4m/s t=-57.4C h=4.6% 405.30MHz Type=RS41-SG batt=2.7V Details on http://radiosondy.info
EI1933-14U45641822023-03-30 12:52:4252.2473-9.228011512428984Clb=7.0m/s t=-57.7C h=4.7% 405.30MHz Type=RS41-SG Details on http://radiosondy.info
EI1933-14U45641822023-03-30 12:52:2252.2481-9.228711532628881Clb=7.5m/s t=-58.1C h=4.8% 405.30MHz Type=RS41-SG Details on http://radiosondy.info
EI1933-14U45641822023-03-30 12:51:5852.2489-9.229641363328779Clb=6.9m/s t=-58.2C h=4.8% 405.30MHz Type=RS41-SG TxPastBurst=8h30m batt=2.7V Details on http://radiosondy.info
EI1933-14U45641822023-03-30 12:51:3852.2498-9.231321263328673Clb=6.0m/s t=-58.5C h=4.8% 405.30MHz Type=RS41-SG Details on http://radiosondy.info
EI1933-14U45641822023-03-30 12:51:1852.2506-9.232871332028567Clb=5.6m/s t=-59.0C h=4.9% 405.30MHz Type=RS41-SG Details on http://radiosondy.info
ASIA-14U45641822023-03-30 12:51:1052.251-9.233481502028505Clb=7.6m/s t=-273.0C h=-1.0% p=-1.0hPa 405.300 MHz Type=RS41 ser=U4564182 Radiosonde
EI1933-14U45641822023-03-30 12:50:5652.2512-9.233621731728457Clb=7.5m/s t=-59.2C h=5.0% 405.30MHz Type=RS41-SG batt=2.7V Details on http://radiosondy.info
EI1933-14U45641822023-03-30 12:50:3452.2518-9.233491712028355Clb=5.5m/s t=-58.8C h=5.0% 405.30MHz Type=RS41-SG Details on http://radiosondy.info
ASIA-14U45641822023-03-30 12:50:2852.2519-9.23371421528320Clb=7.7m/s t=-273.0C h=-1.0% p=-1.0hPa 405.300 MHz Type=RS41 ser=U4564182 Radiosonde
EI1933-14U45641822023-03-30 12:50:1152.2525-9.233771572028249Clb=6.0m/s t=-58.7C h=4.9% 405.30MHz Type=RS41-SG Details on http://radiosondy.info
EI1933-14U45641822023-03-30 12:49:4652.2531-9.234631282228145Clb=5.2m/s t=-58.2C h=4.6% 405.30MHz Type=RS41-SG batt=2.6V Details on http://radiosondy.info
EI1933-14U45641822023-03-30 12:49:2352.2534-9.23588952028043Clb=6.1m/s t=-58.6C h=4.9% 405.30MHz Type=RS41-SG Details on http://radiosondy.info
EI1933-14U45641822023-03-30 12:49:0152.2538-9.23698822427939Clb=7.8m/s t=-58.2C h=4.6% 405.30MHz Type=RS41-SG Details on http://radiosondy.info
EI1933-14U45641822023-03-30 12:48:3752.2543-9.238161082427834Clb=4.8m/s t=-58.2C h=4.5% 405.30MHz Type=RS41-SG TxPastBurst=8h30m batt=2.6V Details on http://radiosondy.info
EI1933-14U45641822023-03-30 12:48:1352.2548-9.239541182427728Clb=7.6m/s t=-58.9C h=4.9% 405.30MHz Type=RS41-SG Details on http://radiosondy.info
EI1933-14U45641822023-03-30 12:47:5352.2556-9.240441343027617Clb=5.8m/s t=-58.6C h=4.8% 405.30MHz Type=RS41-SG Details on http://radiosondy.info
EI1933-14U45641822023-03-30 12:47:3852.2563-9.241771202627510Clb=5.2m/s t=-58.0C h=4.6% 405.30MHz Type=RS41-SG batt=2.7V Details on http://radiosondy.info
EI1933-14U45641822023-03-30 12:47:2252.2565-9.24333952227405Clb=7.0m/s t=-58.0C h=4.6% 405.30MHz Type=RS41-SG Details on http://radiosondy.info
EI1933-14U45641822023-03-30 12:47:0752.2567-9.244611192427306Clb=7.1m/s t=-58.2C h=4.7% 405.30MHz Type=RS41-SG Details on http://radiosondy.info
EI1933-14U45641822023-03-30 12:46:5052.2573-9.245841252227202Clb=5.7m/s t=-58.1C h=4.5% 405.30MHz Type=RS41-SG batt=2.7V Details on http://radiosondy.info
EI1933-14U45641822023-03-30 12:46:3552.2577-9.24711032627100Clb=7.4m/s t=-58.5C h=4.6% 405.30MHz Type=RS41-SG Details on http://radiosondy.info
EI1933-14U45641822023-03-30 12:46:1952.258-9.248581182827000Clb=7.3m/s t=-58.8C h=4.7% 405.30MHz Type=RS41-SG Details on http://radiosondy.info
EI1933-14U45641822023-03-30 12:46:0252.2584-9.250241002626904Clb=6.6m/s t=-59.0C h=4.7% 405.30MHz Type=RS41-SG TxPastBurst=8h30m batt=2.6V Details on http://radiosondy.info
EI1933-14U45641822023-03-30 12:45:4652.2587-9.251891083126808Clb=7.5m/s t=-59.4C h=4.9% 405.30MHz Type=RS41-SG Details on http://radiosondy.info
EI1933-14U45641822023-03-30 12:45:2852.259-9.254061172426703Clb=5.4m/s t=-59.2C h=4.8% 405.30MHz Type=RS41-SG Details on http://radiosondy.info
EI1933-14U45641822023-03-30 12:45:1652.2592-9.25585832026600Clb=4.5m/s t=-59.4C h=4.9% 405.30MHz Type=RS41-SG batt=2.7V Details on http://radiosondy.info
EI1933-14U45641822023-03-30 12:44:5852.2591-9.25707551926511Clb=5.5m/s t=-59.6C h=4.9% 405.30MHz Type=RS41-SG Details on http://radiosondy.info
EI1933-14U45641822023-03-30 12:44:2452.257-9.28913751123512Clb=6.8m/s t=-59.3C h=4.9% 405.30MHz Type=RS41-SG Details on http://radiosondy.info
EI1933-14U45641822023-03-30 12:44:0152.2569-9.28972106923410Clb=5.5m/s t=-59.2C h=4.9% 405.30MHz Type=RS41-SG Details on http://radiosondy.info
EI1933-14U45641822023-03-30 12:43:3552.2568-9.29029641723307Clb=5.9m/s t=-59.4C h=5.0% 405.30MHz Type=RS41-SG TxPastBurst=8h30m batt=2.7V Details on http://radiosondy.info
EI1933-14U45641822023-03-30 12:43:0752.2565-9.29123104923209Clb=5.9m/s t=-59.1C h=4.8% 405.30MHz Type=RS41-SG Details on http://radiosondy.info
EI1933-14U45641822023-03-30 12:42:3952.2565-9.29177129923112Clb=5.0m/s t=-59.4C h=5.0% 405.30MHz Type=RS41-SG Details on http://radiosondy.info
EI1933-14U45641822023-03-30 12:42:1152.2566-9.29225105623016Clb=5.2m/s t=-58.9C h=5.0% 405.30MHz Type=RS41-SG batt=2.7V Details on http://radiosondy.info
EI1933-14U45641822023-03-30 12:41:4252.2565-9.292472151122920Clb=4.9m/s t=-58.3C h=4.8% 405.30MHz Type=RS41-SG Details on http://radiosondy.info
EI1933-14U45641822023-03-30 12:41:1552.2566-9.293261242022815Clb=5.5m/s t=-57.9C h=4.7% 405.30MHz Type=RS41-SG Details on http://radiosondy.info
EI1933-14U45641822023-03-30 12:40:5152.2567-9.294591183122726Clb=6.7m/s t=-57.9C h=4.7% 405.30MHz Type=RS41-SG batt=2.6V Details on http://radiosondy.info
ASIA-14U45641822023-03-30 12:40:5052.2567-9.295851013022671Clb=5.9m/s t=-58.0C h=1.2% p=-1.0hPa 405.300 MHz Type=RS41-SG ser=U4564182 Radiosonde
EI1933-14U45641822023-03-30 12:40:2452.2569-9.29663933022638Clb=5.5m/s t=-58.5C h=4.9% 405.30MHz Type=RS41-SG Details on http://radiosondy.info
EI1933-14U45641822023-03-30 12:39:5452.2566-9.29857723722540Clb=7.1m/s t=-58.2C h=4.7% 405.30MHz Type=RS41-SG Details on http://radiosondy.info
EI1933-14U45641822023-03-30 12:39:2952.2564-9.30086774122443Clb=5.3m/s t=-58.5C h=4.8% 405.30MHz Type=RS41-SG TxPastBurst=8h30m batt=2.6V Details on http://radiosondy.info
ASIA-14U45641822023-03-30 12:39:0852.256-9.3032703722343Clb=7.9m/s t=-58.6C h=1.3% p=-1.0hPa 405.300 MHz Type=RS41-SG ser=U4564182 Radiosonde
EI1933-14U45641822023-03-30 12:39:0552.256-9.30334733522336Clb=5.4m/s t=-58.5C h=4.7% 405.30MHz Type=RS41-SG Details on http://radiosondy.info
EI1933-14U45641822023-03-30 12:38:4052.2552-9.30518453722234Clb=5.7m/s t=-58.9C h=4.8% 405.30MHz Type=RS41-SG Details on http://radiosondy.info
ASIA-14U45641822023-03-30 12:38:1852.2541-9.30633373722148Clb=5.7m/s t=-58.9C h=1.3% p=-1.0hPa 405.300 MHz Type=RS41-SG ser=U4564182 Radiosonde
EI1933-14U45641822023-03-30 12:38:1552.254-9.30651403322135Clb=6.2m/s t=-58.9C h=4.9% 405.30MHz Type=RS41-SG batt=2.6V Details on http://radiosondy.info
EI1933-14U45641822023-03-30 12:37:4852.2531-9.30814523522037Clb=5.9m/s t=-59.1C h=4.9% 405.30MHz Type=RS41-SG Details on http://radiosondy.info
EI1933-14U45641822023-03-30 12:37:2252.252-9.30965463321946Clb=5.7m/s t=-59.2C h=5.0% 405.30MHz Type=RS41-SG Details on http://radiosondy.info
EI1933-14U45641822023-03-30 12:36:5652.251-9.31086583021856Clb=5.8m/s t=-59.1C h=4.9% 405.30MHz Type=RS41-SG batt=2.6V Details on http://radiosondy.info
EI1933-14U45641822023-03-30 12:36:2652.2501-9.31222532221759Clb=6.4m/s t=-59.2C h=4.9% 405.30MHz Type=RS41-SG Details on http://radiosondy.info
EI1933-14U45641822023-03-30 12:36:0252.2493-9.31303151721671Clb=4.3m/s t=-59.8C h=5.2% 405.30MHz Type=RS41-SG Details on http://radiosondy.info
EI1933-14U45641822023-03-30 12:35:3952.2488-9.31352191321582Clb=5.8m/s t=-59.1C h=5.0% 405.30MHz Type=RS41-SG TxPastBurst=8h30m batt=2.7V Details on http://radiosondy.info
EI1933-14U45641822023-03-30 12:35:1352.2484-9.3139191121485Clb=5.4m/s t=-58.6C h=4.8% 405.30MHz Type=RS41-SG Details on http://radiosondy.info
EI1933-14U45641822023-03-30 12:34:4752.248-9.3144497921392Clb=5.4m/s t=-58.3C h=4.7% 405.30MHz Type=RS41-SG Details on http://radiosondy.info
EI1933-14U45641822023-03-30 12:34:2152.248-9.3148153921291Clb=6.9m/s t=-58.4C h=4.7% 405.30MHz Type=RS41-SG batt=2.7V Details on http://radiosondy.info
EI1933-14U45641822023-03-30 12:33:5452.2479-9.3152681121193Clb=6.5m/s t=-58.6C h=4.9% 405.30MHz Type=RS41-SG Details on http://radiosondy.info
EI1933-14U45641822023-03-30 12:33:2652.248-9.315831241921095Clb=7.3m/s t=-57.9C h=4.6% 405.30MHz Type=RS41-SG Details on http://radiosondy.info
EI1933-14U45641822023-03-30 12:32:5552.2482-9.31689992020999Clb=5.4m/s t=-57.6C h=4.5% 405.30MHz Type=RS41-SG batt=2.7V Details on http://radiosondy.info
EI1933-14U45641822023-03-30 12:32:3052.2483-9.3182831920905Clb=6.1m/s t=-57.5C h=4.6% 405.30MHz Type=RS41-SG Details on http://radiosondy.info
ASIA-14U45641822023-03-30 12:32:2052.2483-9.31889841120859Clb=7.2m/s t=-57.4C h=1.2% p=-1.0hPa 405.300 MHz Type=RS41-SG ser=U4564182 Radiosonde
EI1933-14U45641822023-03-30 12:32:0352.2482-9.31943821920814Clb=4.7m/s t=-57.2C h=4.5% 405.30MHz Type=RS41-SG Details on http://radiosondy.info
EI1933-14U45641822023-03-30 12:31:3852.2479-9.32055921920727Clb=4.1m/s t=-57.3C h=4.4% 405.30MHz Type=RS41-SG TxPastBurst=8h30m batt=2.7V Details on http://radiosondy.info
EI1933-14U45641822023-03-30 12:31:1452.2478-9.32167641720646Clb=4.6m/s t=-57.5C h=4.6% 405.30MHz Type=RS41-SG Details on http://radiosondy.info
EI1933-14U45641822023-03-30 12:30:4752.2474-9.322621011320552Clb=4.5m/s t=-57.3C h=4.5% 405.30MHz Type=RS41-SG Details on http://radiosondy.info
ASIA-14U45641822023-03-30 12:30:4052.2474-9.3227681320531Clb=4.4m/s t=-57.3C h=1.2% p=-1.0hPa 405.300 MHz Type=RS41-SG ser=U4564182 Radiosonde
EI1933-14U45641822023-03-30 12:30:2052.2472-9.3234717920466Clb=6.1m/s t=-56.9C h=4.4% 405.30MHz Type=RS41-SG batt=2.7V Details on http://radiosondy.info
EI1933-14U45641822023-03-30 12:29:5052.2471-9.32395421720381Clb=5.0m/s t=-56.6C h=4.3% 405.30MHz Type=RS41-SG Details on http://radiosondy.info
ASIA-14U45641822023-03-30 12:29:4652.2471-9.3240271920372Clb=4.5m/s t=-56.7C h=1.2% p=-1.0hPa 405.300 MHz Type=RS41-SG ser=U4564182 Radiosonde
EI1933-14U45641822023-03-30 12:29:2052.247-9.32513842420292Clb=5.5m/s t=-56.9C h=4.5% 405.30MHz Type=RS41-SG Details on http://radiosondy.info
ASIA-14U45641822023-03-30 12:28:5452.2468-9.3265551920217Clb=4.9m/s t=-56.7C h=1.2% p=-1.0hPa 405.300 MHz Type=RS41-SG ser=U4564182 Radiosonde
EI1933-14U45641822023-03-30 12:28:5352.2467-9.32656651920213Clb=5.3m/s t=-56.6C h=4.4% 405.30MHz Type=RS41-SG batt=2.7V Details on http://radiosondy.info
EI1933-14U45641822023-03-30 12:28:2652.2464-9.3276801720132Clb=3.6m/s t=-56.7C h=4.4% 405.30MHz Type=RS41-SG Details on http://radiosondy.info
ASIA-14U45641822023-03-30 12:28:0152.2464-9.328621072220055Clb=5.3m/s t=-57.1C h=1.2% p=-1.0hPa 405.300 MHz Type=RS41-SG ser=U4564182 Radiosonde
EI1933-14U45641822023-03-30 12:27:5552.2463-9.33036872419965Clb=5.0m/s t=-57.2C h=4.5% 405.30MHz Type=RS41-SG TxPastBurst=8h30m batt=2.6V Details on http://radiosondy.info
ASIA-14U45641822023-03-30 12:27:5352.2464-9.331751022019886Clb=6.5m/s t=-57.4C h=1.2% p=-1.0hPa 405.300 MHz Type=RS41-SG ser=U4564182 Radiosonde
EI1933-14U45641822023-03-30 12:27:5252.2464-9.33192992619874Clb=5.0m/s t=-57.3C h=4.5% 405.30MHz Type=RS41-SG Details on http://radiosondy.info
EI1933-14U45641822023-03-30 12:27:4552.2465-9.33366963519778Clb=7.5m/s t=-57.5C h=4.6% 405.30MHz Type=RS41-SG Details on http://radiosondy.info
ASIA-14U45641822023-03-30 12:27:4152.2463-9.33553873119695Clb=5.3m/s t=-57.2C h=1.3% p=-1.0hPa 405.300 MHz Type=RS41-SG ser=U4564182 Radiosonde
EI1933-14U45641822023-03-30 12:27:3952.2463-9.33577823719682Clb=6.1m/s t=-57.1C h=4.5% 405.30MHz Type=RS41-SG batt=2.6V Details on http://radiosondy.info
EI1933-14U45641822023-03-30 12:27:2552.2458-9.33801583719579Clb=7.6m/s t=-57.1C h=4.4% 405.30MHz Type=RS41-SG Details on http://radiosondy.info
ASIA-14U45641822023-03-30 12:27:1452.2451-9.33969453519494Clb=5.1m/s t=-57.4C h=1.3% p=-1.0hPa 405.300 MHz Type=RS41-SG ser=U4564182 Radiosonde
EI1933-14U45641822023-03-30 12:27:0852.2449-9.34002523119475Clb=5.6m/s t=-57.4C h=4.5% 405.30MHz Type=RS41-SG Details on http://radiosondy.info
EI1933-14U45641822023-03-30 12:26:5852.2441-9.3416552419379Clb=5.2m/s t=-57.5C h=4.6% 405.30MHz Type=RS41-SG batt=2.6V Details on http://radiosondy.info
ASIA-14U45641822023-03-30 12:26:5352.2437-9.34266752019312Clb=6.8m/s t=-57.2C h=1.3% p=-1.0hPa 405.300 MHz Type=RS41-SG ser=U4564182 Radiosonde
EI1933-14U45641822023-03-30 12:26:5052.2435-9.34436732019208Clb=4.6m/s t=-56.8C h=4.4% 405.30MHz Type=RS41-SG Details on http://radiosondy.info
ASIA-14U45641822023-03-30 12:26:4652.2433-9.34523872219153Clb=5.1m/s t=-56.4C h=1.2% p=-1.0hPa 405.300 MHz Type=RS41-SG ser=U4564182 Radiosonde
EI1933-14U45641822023-03-30 12:26:4452.2433-9.34558642019130Clb=4.6m/s t=-56.5C h=4.4% 405.30MHz Type=RS41-SG TxPastBurst=8h30m batt=2.7V Details on http://radiosondy.info
EI1933-14U45641822023-03-30 12:26:3952.2428-9.34667582219050Clb=4.9m/s t=-56.4C h=4.3% 405.30MHz Type=RS41-SG Details on http://radiosondy.info
ASIA-14U45641822023-03-30 12:26:3552.2426-9.34748832419003Clb=4.2m/s t=-56.6C h=1.2% p=-1.0hPa 405.300 MHz Type=RS41-SG ser=U4564182 Radiosonde
EI1933-14U45641822023-03-30 12:26:2852.2426-9.34806853318975Clb=3.8m/s t=-56.8C h=4.3% 405.30MHz Type=RS41-SG Details on http://radiosondy.info
EI1933-14U45641822023-03-30 12:26:1252.2423-9.35011783718902Clb=4.6m/s t=-57.5C h=4.5% 405.30MHz Type=RS41-SG batt=2.6V Details on http://radiosondy.info
ASIA-14U45641822023-03-30 12:26:0352.2421-9.35134723318866Clb=4.7m/s t=-57.6C h=1.3% p=-1.0hPa 405.300 MHz Type=RS41-SG ser=U4564182 Radiosonde
EI1933-14U45641822023-03-30 12:26:0052.2418-9.35232583518836Clb=4.7m/s t=-57.9C h=4.5% 405.30MHz Type=RS41-SG Details on http://radiosondy.info
EI1933-14U45641822023-03-30 12:25:5552.2411-9.35428492818767Clb=4.4m/s t=-58.2C h=4.8% 405.30MHz Type=RS41-SG Details on http://radiosondy.info
ASIA-14U45641822023-03-30 12:25:5352.2406-9.35522522618714Clb=4.8m/s t=-58.1C h=1.4% p=-1.0hPa 405.300 MHz Type=RS41-SG ser=U4564182 Radiosonde
EI1933-14U45641822023-03-30 12:25:5252.2403-9.3556332418690Clb=4.9m/s t=-58.0C h=4.7% 405.30MHz Type=RS41-SG batt=2.6V Details on http://radiosondy.info
EI1933-14U45641822023-03-30 12:25:4752.2396-9.35664401918611Clb=4.4m/s t=-57.7C h=4.7% 405.30MHz Type=RS41-SG Details on http://radiosondy.info
ASIA-14U45641822023-03-30 12:25:4652.2393-9.35696381718570Clb=4.7m/s t=-57.5C h=1.3% p=-1.0hPa 405.300 MHz Type=RS41-SG ser=U4564182 Radiosonde
EI1933-14U45641822023-03-30 12:25:4352.2391-9.3574551718529Clb=5.4m/s t=-57.2C h=4.5% 405.30MHz Type=RS41-SG Details on http://radiosondy.info
EI1933-14U45641822023-03-30 12:25:3752.2387-9.35828641518445Clb=4.9m/s t=-57.1C h=4.5% 405.30MHz Type=RS41-SG TxPastBurst=8h30m batt=2.6V Details on http://radiosondy.info
ASIA-14U45641822023-03-30 12:25:3252.2386-9.35867931318402Clb=5.4m/s t=-57.0C h=1.3% p=-1.0hPa 405.300 MHz Type=RS41-SG ser=U4564182 Radiosonde
EI1933-14U45641822023-03-30 12:25:1952.2385-9.3591531918360Clb=4.3m/s t=-56.8C h=4.5% 405.30MHz Type=RS41-SG Details on http://radiosondy.info
EI1933-14U45641822023-03-30 12:24:5352.2382-9.36021762618275Clb=4.0m/s t=-56.7C h=4.4% 405.30MHz Type=RS41-SG Details on http://radiosondy.info
ASIA-14U45641822023-03-30 12:24:4452.2381-9.36072852618248Clb=5.4m/s t=-56.7C h=1.2% p=-1.0hPa 405.300 MHz Type=RS41-SG ser=U4564182 Radiosonde
EI1933-14U45641822023-03-30 12:24:2452.2379-9.36189843118191Clb=5.6m/s t=-56.4C h=4.3% 405.30MHz Type=RS41-SG batt=2.7V Details on http://radiosondy.info
EI1933-14U45641822023-03-30 12:23:5752.2376-9.36384613518110Clb=4.3m/s t=-56.3C h=4.3% 405.30MHz Type=RS41-SG Details on http://radiosondy.info
ASIA-14U45641822023-03-30 12:23:5052.2374-9.36432683118090Clb=5.5m/s t=-56.3C h=1.2% p=-1.0hPa 405.300 MHz Type=RS41-SG ser=U4564182 Radiosonde
EI1933-14U45641822023-03-30 12:23:2852.2371-9.36603724318029Clb=4.9m/s t=-56.2C h=4.3% 405.30MHz Type=RS41-SG Details on http://radiosondy.info
EI1933-14U45641822023-03-30 12:23:0052.2364-9.36852684117949Clb=4.5m/s t=-56.0C h=4.2% 405.30MHz Type=RS41-SG batt=2.6V Details on http://radiosondy.info
ASIA-14U45641822023-03-30 12:22:5552.236-9.37022703717893Clb=5.0m/s t=-55.8C h=1.2% p=-1.0hPa 405.300 MHz Type=RS41-SG ser=U4564182 Radiosonde
EI1933-14U45641822023-03-30 12:22:3352.2359-9.37101804117868Clb=4.6m/s t=-55.7C h=4.1% 405.30MHz Type=RS41-SG Details on http://radiosondy.info
EI1933-14U45641822023-03-30 12:22:0752.2355-9.37356844317787Clb=3.6m/s t=-55.6C h=4.2% 405.30MHz Type=RS41-SG Details on http://radiosondy.info
ASIA-14U45641822023-03-30 12:22:0452.2355-9.37392854617778Clb=5.3m/s t=-55.7C h=1.2% p=-1.0hPa 405.300 MHz Type=RS41-SG ser=U4564182 Radiosonde
EI1933-14U45641822023-03-30 12:21:3852.2351-9.37628774617710Clb=4.9m/s t=-55.4C h=4.1% 405.30MHz Type=RS41-SG TxPastBurst=8h30m batt=2.6V Details on http://radiosondy.info
EI1933-14U45641822023-03-30 12:21:1252.2346-9.3792754417638Clb=3.8m/s t=-55.3C h=4.0% 405.30MHz Type=RS41-SG Details on http://radiosondy.info
ASIA-14U45641822023-03-30 12:21:1152.2346-9.3794784817633Clb=5.5m/s t=-55.4C h=1.1% p=-1.0hPa 405.300 MHz Type=RS41-SG ser=U4564182 Radiosonde
EI1933-14U45641822023-03-30 12:20:4352.234-9.38229654817556Clb=5.2m/s t=-55.5C h=4.1% 405.30MHz Type=RS41-SG Details on http://radiosondy.info
ASIA-14U45641822023-03-30 12:20:2052.2334-9.38487714617492Clb=4.6m/s t=-55.7C h=1.2% p=-1.0hPa 405.300 MHz Type=RS41-SG ser=U4564182 Radiosonde
EI1933-14U45641822023-03-30 12:20:1752.2333-9.38525724417483Clb=3.1m/s t=-55.6C h=4.2% 405.30MHz Type=RS41-SG batt=2.7V Details on http://radiosondy.info
EI1933-14U45641822023-03-30 12:19:4852.2329-9.38803764317412Clb=5.4m/s t=-55.3C h=4.1% 405.30MHz Type=RS41-SG Details on http://radiosondy.info
ASIA-14U45641822023-03-30 12:19:2652.2328-9.39031784117354Clb=3.8m/s t=-55.2C h=1.1% p=-1.0hPa 405.300 MHz Type=RS41-SG ser=U4564182 Radiosonde
EI1933-14U45641822023-03-30 12:19:2152.2327-9.39079823917339Clb=4.4m/s t=-55.2C h=4.0% 405.30MHz Type=RS41-SG Details on http://radiosondy.info
EI1933-14U45641822023-03-30 12:18:5652.2325-9.3933844117263Clb=4.6m/s t=-55.3C h=4.0% 405.30MHz Type=RS41-SG batt=2.7V Details on http://radiosondy.info
ASIA-14U45641822023-03-30 12:18:3652.2324-9.39521804317203Clb=5.6m/s t=-55.4C h=1.1% p=-1.0hPa 405.300 MHz Type=RS41-SG ser=U4564182 Radiosonde
EI1933-14U45641822023-03-30 12:18:2452.2323-9.39621844817173Clb=5.0m/s t=-55.5C h=4.1% 405.30MHz Type=RS41-SG Details on http://radiosondy.info
EI1933-14U45641822023-03-30 12:17:5952.232-9.39925765017091Clb=5.1m/s t=-55.6C h=4.2% 405.30MHz Type=RS41-SG Details on http://radiosondy.info
ASIA-14U45641822023-03-30 12:17:4452.2316-9.40097685217041Clb=6.1m/s t=-55.4C h=1.2% p=-1.0hPa 405.300 MHz Type=RS41-SG ser=U4564182 Radiosonde
EI1933-14U45641822023-03-30 12:17:3152.2313-9.40225644817002Clb=4.7m/s t=-55.0C h=4.1% 405.30MHz Type=RS41-SG TxPastBurst=8h30m batt=2.7V Details on http://radiosondy.info
EI1933-14U45641822023-03-30 12:17:0452.2304-9.40502664416915Clb=4.7m/s t=-54.6C h=3.9% 405.30MHz Type=RS41-SG Details on http://radiosondy.info
ASIA-14U45641822023-03-30 12:16:5152.2298-9.40663544416860Clb=5.1m/s t=-54.7C h=-1.0% p=-1.0hPa 405.300 MHz Type=RS41-SG ser=U4564182 Radiosonde
EI1933-14U45641822023-03-30 12:16:3852.2295-9.40752594316829Clb=4.3m/s t=-54.9C h=4.0% 405.30MHz Type=RS41-SG Details on http://radiosondy.info
EI1933-14U45641822023-03-30 12:16:1452.2286-9.4099574116748Clb=4.1m/s t=-54.8C h=4.0% 405.30MHz Type=RS41-SG batt=2.7V Details on http://radiosondy.info
ASIA-14U45641822023-03-30 12:16:0352.2281-9.41084374116703Clb=4.9m/s t=-54.8C h=-1.0% p=-1.0hPa 405.300 MHz Type=RS41-SG ser=U4564182 Radiosonde
EI1933-14U45641822023-03-30 12:15:5352.2275-9.41171423916662Clb=3.9m/s t=-54.8C h=4.0% 405.30MHz Type=RS41-SG Details on http://radiosondy.info
EI1933-14U45641822023-03-30 12:15:3852.2262-9.41313373116578Clb=5.0m/s t=-54.5C h=4.0% 405.30MHz Type=RS41-SG Details on http://radiosondy.info
ASIA-14U45641822023-03-30 12:15:3452.2257-9.41358363016542Clb=4.9m/s t=-54.5C h=-1.0% p=-1.0hPa 405.300 MHz Type=RS41-SG ser=U4564182 Radiosonde
EI1933-14U45641822023-03-30 12:15:2252.2252-9.41424362816496Clb=6.3m/s t=-54.2C h=3.9% 405.30MHz Type=RS41-SG batt=2.7V Details on http://radiosondy.info
EI1933-14U45641822023-03-30 12:15:0552.2244-9.41551523116410Clb=6.7m/s t=-53.8C h=3.9% 405.30MHz Type=RS41-SG Details on http://radiosondy.info
ASIA-14U45641822023-03-30 12:15:0052.2241-9.41631663116368Clb=4.8m/s t=-273.0C h=-1.0% p=-1.0hPa 405.300 MHz Type=RS41-SG ser=U4564182 Radiosonde
EI1933-14U45641822023-03-30 12:14:5552.2106-9.45119535615184Clb=4.0m/s t=-51.3C h=3.6% 405.30MHz Type=RS41-SG Details on http://radiosondy.info
EI1933-14U45641822023-03-30 12:14:5152.2093-9.45405575415104Clb=4.0m/s t=-51.0C h=3.4% 405.30MHz Type=RS41-SG Details on http://radiosondy.info
EI1933-14U45641822023-03-30 12:14:3852.2081-9.4569495415025Clb=3.7m/s t=-50.9C h=3.4% 405.30MHz Type=RS41-SG batt=2.7V Details on http://radiosondy.info
EI1933-14U45641822023-03-30 12:14:1252.2067-9.45957565614951Clb=5.2m/s t=-50.6C h=3.4% 405.30MHz Type=RS41-SG Details on http://radiosondy.info
EI1933-14U45641822023-03-30 12:13:4752.2055-9.46252585714877Clb=4.5m/s t=-50.4C h=3.3% 405.30MHz Type=RS41-SG Details on http://radiosondy.info
EI1933-14U45641822023-03-30 12:13:2152.2043-9.46561575414811Clb=4.2m/s t=-50.3C h=3.3% 405.30MHz Type=RS41-SG TxPastBurst=8h30m batt=2.7V Details on http://radiosondy.info
EI1933-14U45641822023-03-30 12:12:5352.2031-9.46852615014741Clb=4.6m/s t=-50.4C h=3.3% 405.30MHz Type=RS41-SG Details on http://radiosondy.info
EI1933-14U45641822023-03-30 12:12:2752.2023-9.47147675614673Clb=5.6m/s t=-50.0C h=3.2% 405.30MHz Type=RS41-SG Details on http://radiosondy.info
EI1933-14U45641822023-03-30 12:11:5952.2013-9.47477646514605Clb=3.9m/s t=-50.4C h=3.3% 405.30MHz Type=RS41-SG batt=2.7V Details on http://radiosondy.info
EI1933-14U45641822023-03-30 12:11:3252.1999-9.47825605714545Clb=4.6m/s t=-50.7C h=3.5% 405.30MHz Type=RS41-SG Details on http://radiosondy.info
EI1933-14U45641822023-03-30 12:11:0652.1987-9.48134584814479Clb=4.6m/s t=-50.8C h=3.4% 405.30MHz Type=RS41-SG Details on http://radiosondy.info
EI1933-14U45641822023-03-30 12:10:3852.1974-9.48419555014401Clb=5.4m/s t=-50.8C h=3.4% 405.30MHz Type=RS41-SG batt=2.7V Details on http://radiosondy.info
EI1933-14U45641822023-03-30 12:10:0952.1964-9.4869655214328Clb=5.0m/s t=-50.7C h=3.4% 405.30MHz Type=RS41-SG Details on http://radiosondy.info
EI1933-14U45641822023-03-30 12:09:4252.1954-9.48981615214254Clb=5.1m/s t=-50.6C h=3.4% 405.30MHz Type=RS41-SG Details on http://radiosondy.info
EI1933-14U45641822023-03-30 12:09:1952.1943-9.4927595214176Clb=4.0m/s t=-50.8C h=3.4% 405.30MHz Type=RS41-SG TxPastBurst=8h30m batt=2.7V Details on http://radiosondy.info
EI1933-14U45641822023-03-30 12:08:5552.1933-9.49555564414097Clb=4.5m/s t=-51.1C h=3.6% 405.30MHz Type=RS41-SG Details on http://radiosondy.info
EI1933-14U45641822023-03-30 12:08:2552.1923-9.49793564314019Clb=4.7m/s t=-51.0C h=3.6% 405.30MHz Type=RS41-SG Details on http://radiosondy.info
EI1933-14U45641822023-03-30 12:07:5652.1915-9.50031634613941Clb=4.1m/s t=-50.7C h=3.5% 405.30MHz Type=RS41-SG batt=2.7V Details on http://radiosondy.info
EI1933-14U45641822023-03-30 12:07:2752.1905-9.50284605013857Clb=5.0m/s t=-50.2C h=3.3% 405.30MHz Type=RS41-SG Details on http://radiosondy.info
EI1933-14U45641822023-03-30 12:07:0052.1896-9.50572664813780Clb=5.1m/s t=-50.2C h=3.4% 405.30MHz Type=RS41-SG Details on http://radiosondy.info
EI1933-14U45641822023-03-30 12:06:3752.1888-9.50861615213697Clb=5.6m/s t=-50.1C h=3.4% 405.30MHz Type=RS41-SG batt=2.7V Details on http://radiosondy.info
EI1933-14U45641822023-03-30 12:06:1152.1879-9.51167695213614Clb=4.1m/s t=-49.6C h=3.3% 405.30MHz Type=RS41-SG Details on http://radiosondy.info
EI1933-14U45641822023-03-30 12:05:4752.1872-9.51478805413531Clb=4.9m/s t=-49.6C h=3.2% 405.30MHz Type=RS41-SG Details on http://radiosondy.info
EI1933-14U45641822023-03-30 12:05:1852.1866-9.5186716113440Clb=4.0m/s t=-50.0C h=3.2% 405.30MHz Type=RS41-SG TxPastBurst=8h30m batt=2.7V Details on http://radiosondy.info
EI1933-14U45641822023-03-30 12:04:5552.1859-9.52249736913360Clb=3.2m/s t=-49.9C h=3.2% 405.30MHz Type=RS41-SG Details on http://radiosondy.info
EI1933-14U45641822023-03-30 12:04:3052.185-9.52672687413286Clb=3.4m/s t=-50.1C h=3.3% 405.30MHz Type=RS41-SG Details on http://radiosondy.info
ASIA-14U45641822023-03-30 12:04:1052.184-9.53057646913223Clb=4.3m/s t=-50.3C h=1.2% p=-1.0hPa 405.300 MHz Type=RS41-SG ser=U4564182 Radiosonde
EI1933-14U45641822023-03-30 12:04:0752.1838-9.5311627813215Clb=5.3m/s t=-50.2C h=3.3% 405.30MHz Type=RS41-SG batt=2.7V Details on http://radiosondy.info
EI1933-14U45641822023-03-30 12:03:5652.1825-9.53568647013141Clb=4.4m/s t=-50.2C h=3.3% 405.30MHz Type=RS41-SG Details on http://radiosondy.info
ASIA-14U45641822023-03-30 12:03:5352.1814-9.53954656513072Clb=5.0m/s t=-50.2C h=-1.0% p=-1.0hPa 405.300 MHz Type=RS41-SG ser=U4564182 Radiosonde
EI1933-14U45641822023-03-30 12:03:5252.1813-9.53979676913068Clb=3.9m/s t=-50.1C h=3.3% 405.30MHz Type=RS41-SG Details on http://radiosondy.info
EI1933-14U45641822023-03-30 12:03:5152.1801-9.54371696913001Clb=4.0m/s t=-50.2C h=3.4% 405.30MHz Type=RS41-SG batt=2.7V Details on http://radiosondy.info
ASIA-14U45641822023-03-30 12:03:5052.1791-9.54753717212932Clb=4.6m/s t=-50.3C h=-1.0% p=-1.0hPa 405.300 MHz Type=RS41-SG ser=U4564182 Radiosonde
EI1933-14U45641822023-03-30 12:03:4452.1778-9.5522667612858Clb=4.9m/s t=-50.8C h=3.4% 405.30MHz Type=RS41-SG Details on http://radiosondy.info
ASIA-14U45641822023-03-30 12:03:4152.177-9.55523647412809Clb=4.9m/s t=-51.2C h=-1.0% p=-1.0hPa 405.300 MHz Type=RS41-SG ser=U4564182 Radiosonde
EI1933-14U45641822023-03-30 12:03:3952.1766-9.55664657612789Clb=5.0m/s t=-51.4C h=3.6% 405.30MHz Type=RS41-SG TxPastBurst=8h30m batt=2.7V Details on http://radiosondy.info
EI1933-14U45641822023-03-30 12:03:3552.1753-9.56106687812717Clb=3.9m/s t=-51.6C h=3.7% 405.30MHz Type=RS41-SG Details on http://radiosondy.info
ASIA-14U45641822023-03-30 12:03:3352.1745-9.564647612670Clb=4.8m/s t=-51.8C h=-1.0% p=-1.0hPa 405.300 MHz Type=RS41-SG ser=U4564182 Radiosonde
EI1933-14U45641822023-03-30 12:03:3152.174-9.56566637812643Clb=3.5m/s t=-51.6C h=3.6% 405.30MHz Type=RS41-SG Details on http://radiosondy.info
EI1933-14U45641822023-03-30 12:03:3052.1727-9.57025677612570Clb=4.3m/s t=-51.9C h=3.8% 405.30MHz Type=RS41-SG batt=2.7V Details on http://radiosondy.info
EI1933-14U45641822023-03-30 12:03:2852.1714-9.57458626912496Clb=5.4m/s t=-51.8C h=3.6% 405.30MHz Type=RS41-SG Details on http://radiosondy.info
EI1933-14U45641822023-03-30 12:03:2352.1703-9.57866677012422Clb=4.8m/s t=-52.0C h=3.8% 405.30MHz Type=RS41-SG Details on http://radiosondy.info
EI1933-14U45641822023-03-30 12:03:1952.1691-9.5828657012343Clb=4.7m/s t=-51.5C h=3.7% 405.30MHz Type=RS41-SG batt=2.7V Details on http://radiosondy.info
EI1933-14U45641822023-03-30 12:03:0452.168-9.58693656912263Clb=5.6m/s t=-51.2C h=3.6% 405.30MHz Type=RS41-SG Details on http://radiosondy.info
EI1933-14U45641822023-03-30 12:02:4052.1667-9.5909657012184Clb=4.1m/s t=-51.4C h=3.7% 405.30MHz Type=RS41-SG Details on http://radiosondy.info
EI1933-14U45641822023-03-30 12:02:1552.1655-9.595667012104Clb=5.6m/s t=-51.1C h=3.6% 405.30MHz Type=RS41-SG TxPastBurst=8h30m batt=2.7V Details on http://radiosondy.info
EI1933-14U45641822023-03-30 12:01:5252.1644-9.59925687212023Clb=5.6m/s t=-51.1C h=3.6% 405.30MHz Type=RS41-SG Details on http://radiosondy.info
EI1933-14U45641822023-03-30 12:01:2952.1633-9.60357717411940Clb=4.2m/s t=-51.2C h=3.7% 405.30MHz Type=RS41-SG Details on http://radiosondy.info
EI1933-14U45641822023-03-30 12:01:0852.1621-9.60803677611861Clb=4.5m/s t=-50.9C h=3.6% 405.30MHz Type=RS41-SG batt=2.7V Details on http://radiosondy.info
EI1933-14U45641822023-03-30 12:00:4552.1608-9.61243638011784Clb=5.2m/s t=-51.0C h=3.7% 405.30MHz Type=RS41-SG Details on http://radiosondy.info
EI1933-14U45641822023-03-30 12:00:1852.1594-9.61701667411709Clb=4.4m/s t=-50.9C h=3.7% 405.30MHz Type=RS41-SG Details on http://radiosondy.info
EI1933-14U45641822023-03-30 11:59:5152.1581-9.62126656911635Clb=3.9m/s t=-50.7C h=3.8% 405.30MHz Type=RS41-SG batt=2.7V Details on http://radiosondy.info
EI1933-14U45641822023-03-30 11:59:2852.157-9.62538706911561Clb=4.0m/s t=-50.5C h=3.7% 405.30MHz Type=RS41-SG Details on http://radiosondy.info
EI1933-14U45641822023-03-30 11:59:0352.1562-9.6296797211489Clb=3.9m/s t=-50.2C h=3.7% 405.30MHz Type=RS41-SG Details on http://radiosondy.info
EI1933-14U45641822023-03-30 11:58:3852.1553-9.63415718011416Clb=4.3m/s t=-49.8C h=3.6% 405.30MHz Type=RS41-SG TxPastBurst=8h30m batt=2.7V Details on http://radiosondy.info
EI1933-14U45641822023-03-30 11:58:1552.1543-9.63899728311349Clb=4.4m/s t=-50.6C h=3.9% 405.30MHz Type=RS41-SG Details on http://radiosondy.info
EI1933-14U45641822023-03-30 11:57:5052.1533-9.64412768111281Clb=4.0m/s t=-51.0C h=3.9% 405.30MHz Type=RS41-SG Details on http://radiosondy.info
EI1933-14U45641822023-03-30 11:57:2352.1525-9.6493768511212Clb=5.4m/s t=-52.1C h=4.2% 405.30MHz Type=RS41-SG batt=2.7V Details on http://radiosondy.info
EI1933-14U45641822023-03-30 11:56:5552.1514-9.65457739411144Clb=4.3m/s t=-52.4C h=4.4% 405.30MHz Type=RS41-SG Details on http://radiosondy.info
EI1933-14U45641822023-03-30 11:56:3052.1503-9.660397210011077Clb=5.1m/s t=-52.7C h=4.5% 405.30MHz Type=RS41-SG Details on http://radiosondy.info
EI1933-14U45641822023-03-30 11:56:0652.1488-9.66636910211012Clb=3.4m/s t=-52.5C h=4.6% 405.30MHz Type=RS41-SG batt=2.7V Details on http://radiosondy.info
EI1933-14U45641822023-03-30 11:55:4952.1472-9.672466810410941Clb=5.8m/s t=-52.3C h=4.7% 405.30MHz Type=RS41-SG Details on http://radiosondy.info
EI1933-14U45641822023-03-30 11:55:3152.1454-9.679366610910870Clb=3.7m/s t=-52.5C h=5.0% 405.30MHz Type=RS41-SG Details on http://radiosondy.info
EI1933-14U45641822023-03-30 11:55:1652.1435-9.685796411310803Clb=4.5m/s t=-53.7C h=5.9% 405.30MHz Type=RS41-SG TxPastBurst=8h30m batt=2.7V Details on http://radiosondy.info
EI1933-14U45641822023-03-30 11:54:5952.1413-9.692186311710740Clb=4.3m/s t=-54.3C h=6.8% 405.30MHz Type=RS41-SG Details on http://radiosondy.info
EI1933-14U45641822023-03-30 11:54:4352.1391-9.69886211310670Clb=3.4m/s t=-55.6C h=9.3% 405.30MHz Type=RS41-SG Details on http://radiosondy.info
EI1933-14U45641822023-03-30 11:54:2752.1369-9.705165910710603Clb=3.7m/s t=-57.1C h=12.4% 405.30MHz Type=RS41-SG batt=2.7V Details on http://radiosondy.info
EI1933-14U45641822023-03-30 11:54:1252.135-9.711346610910540Clb=3.1m/s t=-58.0C h=17.0% 405.30MHz Type=RS41-SG Details on http://radiosondy.info
EI1933-14U45641822023-03-30 11:53:5552.1332-9.717756810410470Clb=4.7m/s t=-58.1C h=19.5% 405.30MHz Type=RS41-SG Details on http://radiosondy.info
EI1933-14U45641822023-03-30 11:53:3952.1317-9.723937310010399Clb=4.6m/s t=-57.9C h=22.2% 405.30MHz Type=RS41-SG batt=2.7V Details on http://radiosondy.info
EI1933-14U45641822023-03-30 11:53:2252.1305-9.73067510410326Clb=3.9m/s t=-57.4C h=24.3% 405.30MHz Type=RS41-SG Details on http://radiosondy.info
EI1933-14U45641822023-03-30 11:53:0652.1294-9.737137210610256Clb=4.5m/s t=-56.9C h=28.5% 405.30MHz Type=RS41-SG Details on http://radiosondy.info
EI1933-14U45641822023-03-30 11:52:5152.1283-9.743667710910167Clb=4.4m/s t=-57.8C h=34.6% 405.30MHz Type=RS41-SG TxPastBurst=8h30m batt=2.7V Details on http://radiosondy.info
EI1933-14U45641822023-03-30 11:52:5052.1274-9.750527711510094Clb=5.5m/s t=-57.2C h=35.1% 405.30MHz Type=RS41-SG Details on http://radiosondy.info
EI1933-14U45641822023-03-30 11:52:4552.1262-9.757797611910011Clb=4.6m/s t=-56.9C h=35.4% 405.30MHz Type=RS41-SG Details on http://radiosondy.info
EI1933-14U45641822023-03-30 11:52:4052.1249-9.76514761179943Clb=4.7m/s t=-56.6C h=39.3% 405.30MHz Type=RS41-SG batt=2.7V Details on http://radiosondy.info
EI1933-14U45641822023-03-30 11:52:3652.1235-9.77329741139865Clb=4.4m/s t=-56.2C h=51.4% 405.30MHz Type=RS41-SG Details on http://radiosondy.info
EI1933-14U45641822023-03-30 11:52:3152.1223-9.78036771119787Clb=4.4m/s t=-56.1C h=69.2% 405.30MHz Type=RS41-SG Details on http://radiosondy.info
EI1933-14U45641822023-03-30 11:52:3052.1213-9.78739761139714Clb=4.2m/s t=-56.5C h=79.8% 405.30MHz Type=RS41-SG batt=2.7V Details on http://radiosondy.info
EI1933-14U45641822023-03-30 11:52:2452.12-9.79442721199645Clb=5.6m/s t=-56.3C h=75.9% 405.30MHz Type=RS41-SG Details on http://radiosondy.info
EI1933-14U45641822023-03-30 11:52:0952.1183-9.8016681209580Clb=4.4m/s t=-56.3C h=82.4% 405.30MHz Type=RS41-SG Details on http://radiosondy.info
EI1933-14U45641822023-03-30 11:51:4252.1165-9.80874651209512Clb=4.5m/s t=-55.9C h=81.6% 405.30MHz Type=RS41-SG TxPastBurst=8h30m batt=2.7V Details on http://radiosondy.info
EI1933-14U45641822023-03-30 11:51:1952.1145-9.8159641199448Clb=2.9m/s t=-55.4C h=80.2% 405.30MHz Type=RS41-SG Details on http://radiosondy.info
EI1933-14U45641822023-03-30 11:50:5552.1126-9.82289681249373Clb=5.5m/s t=-54.8C h=75.9% 405.30MHz Type=RS41-SG Details on http://radiosondy.info
EI1933-14U45641822023-03-30 11:50:3252.1106-9.83031651159291Clb=7.9m/s t=-54.0C h=70.0% 405.30MHz Type=RS41-SG batt=2.9V Details on http://radiosondy.info
EI1933-14U45641822023-03-30 11:50:0752.1088-9.83705671139209Clb=4.3m/s t=-53.2C h=69.0% 405.30MHz Type=RS41-SG Details on http://radiosondy.info
EI1933-14U45641822023-03-30 11:49:4352.1071-9.84339661139146Clb=4.0m/s t=-52.5C h=66.4% 405.30MHz Type=RS41-SG Details on http://radiosondy.info
EI1933-14U45641822023-03-30 11:49:1952.1051-9.84984731119074Clb=4.0m/s t=-51.9C h=65.9% 405.30MHz Type=RS41-SG batt=2.7V Details on http://radiosondy.info
EI1933-14U45641822023-03-30 11:48:5452.1035-9.85647751158996Clb=5.2m/s t=-51.1C h=62.2% 405.30MHz Type=RS41-SG Details on http://radiosondy.info
EI1933-14U45641822023-03-30 11:48:2852.1018-9.86344701118885Clb=5.8m/s t=-50.1C h=55.9% 405.30MHz Type=RS41-SG Details on http://radiosondy.info
EI1933-14U45641822023-03-30 11:48:0152.1004-9.87008781138796Clb=3.0m/s t=-49.2C h=52.4% 405.30MHz Type=RS41-SG TxPastBurst=8h30m batt=2.7V Details on http://radiosondy.info
EI1933-14U45641822023-03-30 11:47:4552.0987-9.8769731158705Clb=7.3m/s t=-48.4C h=48.9% 405.30MHz Type=RS41-SG Details on http://radiosondy.info
EI1933-14U45641822023-03-30 11:47:3052.0972-9.88362611098605Clb=6.3m/s t=-47.5C h=44.7% 405.30MHz Type=RS41-SG Details on http://radiosondy.info
EI1933-14U45641822023-03-30 11:47:2952.0958-9.89034681028513Clb=5.5m/s t=-46.8C h=48.4% 405.30MHz Type=RS41-SG batt=2.9V Details on http://radiosondy.info
EI1933-14U45641822023-03-30 11:47:2452.0949-9.89634791028408Clb=5.0m/s t=-45.8C h=48.8% 405.30MHz Type=RS41-SG Details on http://radiosondy.info
EI1933-14U45641822023-03-30 11:47:2152.0941-9.90277771008331Clb=4.3m/s t=-45.1C h=47.8% 405.30MHz Type=RS41-SG Details on http://radiosondy.info
EI1933-14U45641822023-03-30 11:47:1352.0932-9.90905761008260Clb=5.0m/s t=-44.4C h=46.3% 405.30MHz Type=RS41-SG batt=2.9V Details on http://radiosondy.info
EI1933-14U45641822023-03-30 11:46:5552.0923-9.9153177968189Clb=5.1m/s t=-43.9C h=50.1% 405.30MHz Type=RS41-SG Details on http://radiosondy.info
EI1933-14U45641822023-03-30 11:46:3452.0914-9.9213282938108Clb=3.8m/s t=-43.2C h=51.2% 405.30MHz Type=RS41-SG Details on http://radiosondy.info
EI1933-14U45641822023-03-30 11:46:1452.0905-9.9271476918014Clb=6.1m/s t=-42.4C h=47.3% 405.30MHz Type=RS41-SG TxPastBurst=8h30m batt=2.9V Details on http://radiosondy.info
EI1933-14U45641822023-03-30 11:45:5152.0897-9.9328177937926Clb=3.7m/s t=-41.5C h=46.7% 405.30MHz Type=RS41-SG Details on http://radiosondy.info
EI1933-14U45641822023-03-30 11:45:2952.0888-9.9386381917852Clb=5.2m/s t=-41.0C h=57.1% 405.30MHz Type=RS41-SG Details on http://radiosondy.info
EI1933-14U45641822023-03-30 11:45:0952.088-9.9442674877762Clb=3.8m/s t=-40.1C h=51.1% 405.30MHz Type=RS41-SG batt=2.9V Details on http://radiosondy.info
EI1933-14U45641822023-03-30 11:44:4952.0871-9.9493169857694Clb=2.5m/s t=-39.4C h=48.2% 405.30MHz Type=RS41-SG Details on http://radiosondy.info
EI1933-14U45641822023-03-30 11:44:2752.0862-9.9546170917611Clb=5.0m/s t=-38.6C h=46.1% 405.30MHz Type=RS41-SG Details on http://radiosondy.info
EI1933-14U45641822023-03-30 11:44:0452.0854-9.9603678837533Clb=3.4m/s t=-37.9C h=47.6% 405.30MHz Type=RS41-SG batt=2.9V Details on http://radiosondy.info
EI1933-14U45641822023-03-30 11:43:4852.0844-9.9655880917458Clb=6.1m/s t=-37.3C h=54.9% 405.30MHz Type=RS41-SG Details on http://radiosondy.info
EI1933-14U45641822023-03-30 11:43:3352.0835-9.9713875947376Clb=3.1m/s t=-36.6C h=58.1% 405.30MHz Type=RS41-SG Details on http://radiosondy.info
EI1933-14U45641822023-03-30 11:43:1752.0823-9.9771571947301Clb=4.8m/s t=-36.1C h=60.0% 405.30MHz Type=RS41-SG TxPastBurst=8h30m batt=2.9V Details on http://radiosondy.info
EI1933-14U45641822023-03-30 11:42:5952.0812-9.9829375947238Clb=4.2m/s t=-35.6C h=62.8% 405.30MHz Type=RS41-SG Details on http://radiosondy.info
EI1933-14U45641822023-03-30 11:42:4652.0799-9.9886973917181Clb=4.1m/s t=-35.0C h=65.8% 405.30MHz Type=RS41-SG Details on http://radiosondy.info
EI1933-14U45641822023-03-30 11:42:4252.0788-9.9943269987100Clb=3.7m/s t=-34.4C h=69.7% 405.30MHz Type=RS41-SG batt=2.9V Details on http://radiosondy.info
EI1933-14U45641822023-03-30 11:42:3852.0775-10.0003731007029Clb=4.5m/s t=-33.8C h=72.2% 405.30MHz Type=RS41-SG Details on http://radiosondy.info
EI1933-14U45641822023-03-30 11:42:2752.0762-10.006466896954Clb=6.2m/s t=-33.2C h=66.8% 405.30MHz Type=RS41-SG Details on http://radiosondy.info
EI1933-14U45641822023-03-30 11:42:1352.0751-10.01270946868Clb=4.8m/s t=-32.5C h=75.0% 405.30MHz Type=RS41-SG batt=2.9V Details on http://radiosondy.info
EI1933-14U45641822023-03-30 11:41:5352.0738-10.017770916782Clb=5.2m/s t=-31.7C h=79.5% 405.30MHz Type=RS41-SG Details on http://radiosondy.info
EI1933-14U45641822023-03-30 11:41:3152.0725-10.023260936702Clb=4.7m/s t=-31.1C h=78.4% 405.30MHz Type=RS41-SG Details on http://radiosondy.info
EI1933-14U45641822023-03-30 11:41:1252.0708-10.028570966623Clb=4.9m/s t=-30.5C h=80.6% 405.30MHz Type=RS41-SG TxPastBurst=8h30m batt=2.9V Details on http://radiosondy.info
EI1933-14U45641822023-03-30 11:40:4952.0691-10.03464936537Clb=7.8m/s t=-29.7C h=78.1% 405.30MHz Type=RS41-SG Details on http://radiosondy.info
EI1933-14U45641822023-03-30 11:40:2652.0676-10.039571946460Clb=5.7m/s t=-29.0C h=78.9% 405.30MHz Type=RS41-SG Details on http://radiosondy.info
EI1933-14U45641822023-03-30 11:40:0552.0662-10.045172916377Clb=4.6m/s t=-28.2C h=74.8% 405.30MHz Type=RS41-SG batt=2.9V Details on http://radiosondy.info
EI1933-14U45641822023-03-30 11:39:4752.0647-10.050568876303Clb=5.1m/s t=-27.5C h=72.3% 405.30MHz Type=RS41-SG Details on http://radiosondy.info
EI1933-14U45641822023-03-30 11:39:3152.0633-10.055860856219Clb=3.4m/s t=-27.0C h=72.0% 405.30MHz Type=RS41-SG Details on http://radiosondy.info
EI1933-14U45641822023-03-30 11:39:1552.0618-10.060765876147Clb=3.8m/s t=-26.7C h=71.8% 405.30MHz Type=RS41-SG batt=2.9V Details on http://radiosondy.info
EI1933-14U45641822023-03-30 11:38:5952.0601-10.065765786076Clb=4.5m/s t=-27.1C h=57.6% 405.30MHz Type=RS41-SG Details on http://radiosondy.info
EI1933-14U45641822023-03-30 11:38:4352.0588-10.070372805993Clb=5.7m/s t=-26.9C h=48.7% 405.30MHz Type=RS41-SG Details on http://radiosondy.info
EI1933-14U45641822023-03-30 11:38:3852.0577-10.075160745894Clb=7.1m/s t=-26.1C h=49.2% 405.30MHz Type=RS41-SG TxPastBurst=8h30m batt=2.9V Details on http://radiosondy.info
EI1933-14U45641822023-03-30 11:38:2852.0562-10.079259815816Clb=4.3m/s t=-25.4C calibration 94% 405.30MHz Type=RS41 Details on http://radiosondy.info
EI1933-14U45641822023-03-30 11:38:0652.0546-10.083953785725Clb=6.0m/s t=-24.7C calibration 84% 405.30MHz Type=RS41 Details on http://radiosondy.info
EI1933-14U45641822023-03-30 11:37:4452.053-10.088263785646Clb=3.4m/s t=-23.9C calibration 84% 405.30MHz Type=RS41 batt=2.9V Details on http://radiosondy.info
EI1933-14U45641822023-03-30 11:37:2352.0497-10.096349805463Clb=3.9m/s calibration 54% 405.30MHz Type=RS41 Details on http://radiosondy.info
EI1933-14U45641822023-03-30 11:37:0152.0478-10.100355725381Clb=5.1m/s calibration 39% Type=RS41 batt=2.9V Details on http://radiosondy.info
EI1933-14U45641822023-03-30 11:36:4252.0462-10.104358675307Clb=5.0m/s calibration 31% Type=RS41 Details on http://radiosondy.info
EI1933-14U45641822023-03-30 11:36:2252.0446-10.107762615230Clb=6.2m/s calibration 23% Type=RS41 Details on http://radiosondy.info
EI1933-14U45641822023-03-30 11:36:0452.0432-10.110958675148Clb=5.2m/s calibration 7% Type=RS41 batt=2.9V Details on http://radiosondy.info